PORTS® Data Listing: 8720218 Mayport Bar Pilots Dock, FL

CO-OPS RAW PORTS DATA

************************      PRELIMINARY DATA      ************************** 

     THIS RAW DATA HAS NOT BEEN SUBJECT TO THE NATIONAL OCEAN SERVICE'S        
     QUALITY CONTROL OR QUALITY ASSURANCE PROCEDURES AND DOES NOT MEET         
     THE CRITERIA AND STANDARDS OF OFFICIAL NATIONAL OCEAN SERVICE             
     DATA.  IT IS RELEASED FOR LIMITED PUBLIC USE AS PRELIMINARY DATA TO       
     BE USED ONLY WITH APPROPRIATE CAUTION.                                    

************************      PRELIMINARY DATA      ************************** 


       CD   -   Calendar date
       T    -   Time
       TZ   -   Timezone
       PW   -   Predicted water level (feet above MLLW)
       OW   -   Observed water level (feet above MLLW)
       WS   -   Wind speed (knots)
       WD   -   Wind direction (degrees true)
       WG   -   Wind gust (knots)
       AT   -   Air temperature (degrees farenheit)
       WT   -   Water temperature (degrees farenheit)
       AP   -   Air pressure (millibars)
       SA   -   Salinty (PSU - Practical Salinity Units)
       SG   -   Specific gravity
       RH   -   Relative humidity
       AG   -   Air gap (feet)
       VI   -   Visibility (nautical miles)

       ** NOTE **
       A variable that has its data fields filled with "9"s, indicates that
       data was not collected for that sample period.
       **********


STATION NAME: Mayport Bar Pilots Dock (8720218)
****************************************************************************************************
    CD       T    TZ    PW     OW    WS   WD   WG    AT    WT    AP    SA    SG     RH    AG   VI
****************************************************************************************************
2020/02/22 08:18 EST    4.61   6.04   20   23   24  49.8  57.4 1029.0 22.1  1.017 -99.9 -99.99 -9.99
2020/02/22 08:24 EST    4.59   6.08   21   18   25  49.8  57.6 1029.1 22.1  1.017 -99.9 -99.99 -9.99
2020/02/22 08:30 EST    4.56   6.09   20   24   24  49.8  57.6 1029.3 22.1  1.017 -99.9 -99.99 -9.99
2020/02/22 08:36 EST    4.52   6.04   19   19   24  50.2  57.6 1029.3 22.1  1.017 -99.9 -99.99 -9.99
2020/02/22 08:42 EST    4.48   6.04   21   21   24  50.2  57.6 1029.4 22.1  1.017 -99.9 -99.99 -9.99
2020/02/22 08:48 EST    4.42   6.02   18   16   24  50.4  57.6 1029.5 22.1  1.017 -99.9 -99.99 -9.99
2020/02/22 08:54 EST    4.37   5.98   21   18   25  50.0  57.6 1029.5 22.1  1.017 -99.9 -99.99 -9.99
2020/02/22 09:00 EST    4.30   5.96   18   30   23  50.4  57.6 1029.5 22.0  1.017 -99.9 -99.99 -9.99
2020/02/22 09:06 EST    4.23   5.92   22   15   26  49.8  57.6 1029.7 22.0  1.017 -99.9 -99.99 -9.99
2020/02/22 09:12 EST    4.15   5.87   20   14   25  50.2  57.6 1029.8 22.0  1.017 -99.9 -99.99 -9.99
2020/02/22 09:18 EST    4.06   5.80   20   13   26  50.0  57.6 1029.8 22.0  1.017 -99.9 -99.99 -9.99
2020/02/22 09:24 EST    3.97   5.76   17   21   26  50.7  57.6 1029.9 22.0  1.017 -99.9 -99.99 -9.99
2020/02/22 09:30 EST    3.87   5.72   20   22   25  50.5  57.6 1030.0 22.0  1.017 -99.9 -99.99 -9.99
2020/02/22 09:36 EST    3.77   5.60   21   24   26  50.2  57.6 1030.0 22.0  1.017 -99.9 -99.99 -9.99
2020/02/22 09:42 EST    3.66   5.60   20   19   27  50.4  57.6 1030.1 22.0  1.017 -99.9 -99.99 -9.99
2020/02/22 09:48 EST    3.55   5.52   19   32   24  50.5  57.6 1029.9 22.0  1.017 -99.9 -99.99 -9.99
2020/02/22 09:54 EST    3.44   5.40   20   24   26  50.4  57.6 1029.8 22.0  1.017 -99.9 -99.99 -9.99
2020/02/22 10:00 EST    3.32   5.31   21   21   27  50.4  57.6 1029.8 22.0  1.017 -99.9 -99.99 -9.99
2020/02/22 10:06 EST    3.19   5.19   20   27   26  50.5  57.6 1029.9 22.0  1.017 -99.9 -99.99 -9.99
2020/02/22 10:12 EST    3.07   5.09   23   27   27  50.4  57.6 1030.1 22.0  1.017 -99.9 -99.99 -9.99
2020/02/22 10:18 EST    2.94   4.98   19   20   24  50.7  57.6 1030.1 22.0  1.017 -99.9 -99.99 -9.99
2020/02/22 10:24 EST    2.81   4.86   19   24   25  51.1  57.7 1030.1 21.9  1.017 -99.9 -99.99 -9.99
2020/02/22 10:30 EST    2.69   4.75   21   22   25  50.7  57.7 1030.2 21.9  1.017 -99.9 -99.99 -9.99
2020/02/22 10:36 EST    2.56   4.63   20   26   25  50.5  57.7 1030.2 21.9  1.017 -99.9 -99.99 -9.99
2020/02/22 10:42 EST    2.43   4.48   21   27   25  50.9  57.7 1030.1 21.9  1.017 -99.9 -99.99 -9.99
2020/02/22 10:48 EST    2.30   4.37   20   20   24  50.7  57.7 1030.2 21.9  1.017 -99.9 -99.99 -9.99
2020/02/22 10:54 EST    2.17   4.25   21   28   26  50.9  57.7 1030.3 21.9  1.017 -99.9 -99.99 -9.99
2020/02/22 11:00 EST    2.04   4.10   20   21   27  50.9  57.7 1030.2 21.9  1.017 -99.9 -99.99 -9.99
2020/02/22 11:06 EST    1.91   3.99   21   27   24  50.9  57.7 1030.1 21.9  1.017 -99.9 -99.99 -9.99
2020/02/22 11:12 EST    1.78   3.89   20   29   25  51.1  57.7 1030.2 21.9  1.017 -99.9 -99.99 -9.99
2020/02/22 11:18 EST    1.66   3.77   21   18   28  50.9  57.7 1030.2 21.9  1.017 -99.9 -99.99 -9.99
2020/02/22 11:24 EST    1.53   3.65   18    6   26  50.9  57.7 1030.3 21.9  1.017 -99.9 -99.99 -9.99
2020/02/22 11:30 EST    1.41   3.51   18   17   22  50.9  57.7 1030.3 21.9  1.017 -99.9 -99.99 -9.99
2020/02/22 11:36 EST    1.30   3.38   23   30   27  50.7  57.7 1030.4 21.9  1.017 -99.9 -99.99 -9.99
2020/02/22 11:42 EST    1.18   3.22   19   14   23  51.3  57.7 1030.3 21.9  1.017 -99.9 -99.99 -9.99
2020/02/22 11:48 EST    1.07   3.12   20   11   24  50.9  57.7 1030.1 21.9  1.017 -99.9 -99.99 -9.99
2020/02/22 11:54 EST    0.96   3.00   19   22   23  51.3  57.7 1030.1 21.9  1.017 -99.9 -99.99 -9.99
2020/02/22 12:00 EST    0.85   2.85   20   20   24  50.9  57.7 1030.1 21.9  1.017 -99.9 -99.99 -9.99
2020/02/22 12:06 EST    0.75   2.75   19   19   25  51.3  57.7 1030.1 21.9  1.017 -99.9 -99.99 -9.99
2020/02/22 12:12 EST    0.65   2.65   17   28   24  51.4  57.7 1030.1 21.9  1.017 -99.9 -99.99 -9.99
2020/02/22 12:18 EST    0.55   2.51   18   14   23  51.4  57.7 1029.9 21.9  1.017 -99.9 -99.99 -9.99
2020/02/22 12:24 EST    0.46   2.38   19   17   24  51.4  57.7 1029.9 21.9  1.017 -99.9 -99.99 -9.99
2020/02/22 12:30 EST    0.37   2.29   19   26   24  51.6  57.7 1029.7 21.9  1.017 -99.9 -99.99 -9.99
2020/02/22 12:36 EST    0.29   2.22   19   30   25  51.6  57.6 1029.6 22.0  1.017 -99.9 -99.99 -9.99
2020/02/22 12:42 EST    0.21   2.16   18   20   28  51.3  57.6 1029.5 22.0  1.017 -99.9 -99.99 -9.99
2020/02/22 12:48 EST    0.14   2.09   18   20   23  50.7  57.6 1029.5 22.0  1.017 -99.9 -99.99 -9.99
2020/02/22 12:54 EST    0.07   1.97   18   14   23  50.5  57.6 1029.4 22.0  1.017 -99.9 -99.99 -9.99
2020/02/22 13:00 EST    0.01   1.86   17   22   26  50.7  57.6 1029.2 22.0  1.017 -99.9 -99.99 -9.99
2020/02/22 13:06 EST   -0.04   1.79   20   20   24  50.2  57.6 1029.1 22.0  1.017 -99.9 -99.99 -9.99
2020/02/22 13:12 EST   -0.09   1.76   18   16   24  50.4  57.6 1029.1 22.0  1.017 -99.9 -99.99 -9.99
2020/02/22 13:18 EST   -0.14   1.72   20   15   25  50.4  57.6 1028.9 22.0  1.017 -99.9 -99.99 -9.99
2020/02/22 13:24 EST   -0.17   1.66   19   15   24  50.2  57.6 1028.8 22.0  1.017 -99.9 -99.99 -9.99
2020/02/22 13:30 EST   -0.20   1.63   20   27   24  50.4  57.6 1028.8 22.0  1.017 -99.9 -99.99 -9.99
2020/02/22 13:36 EST   -0.22   1.57   20   14   23  50.4  57.7 1028.8 22.0  1.017 -99.9 -99.99 -9.99
2020/02/22 13:42 EST   -0.24   1.55   19   24   24  50.4  57.7 1028.7 22.0  1.017 -99.9 -99.99 -9.99
2020/02/22 13:48 EST   -0.25   1.48   17   24   24  50.7  57.7 1028.6 22.0  1.017 -99.9 -99.99 -9.99
2020/02/22 13:54 EST   -0.25   1.41   19   18   24  50.4  57.7 1028.5 22.0  1.017 -99.9 -99.99 -9.99
2020/02/22 14:00 EST   -0.24   1.41   17   16   23  50.4  57.7 1028.5 22.0  1.017 -99.9 -99.99 -9.99
2020/02/22 14:06 EST   -0.23   1.42   19   14   23  50.2  57.7 1028.4 22.0  1.017 -99.9 -99.99 -9.99
2020/02/22 14:12 EST   -0.21   1.42   19   13   23  49.8  57.7 1028.5 22.0  1.017 -99.9 -99.99 -9.99
2020/02/22 14:18 EST   -0.18   1.38   18   24   24  50.2  57.7 1028.6 22.0  1.017 -99.9 -99.99 -9.99
2020/02/22 14:24 EST   -0.15   1.34   17   21   23  50.2  57.7 1028.4 22.0  1.017 -99.9 -99.99 -9.99
2020/02/22 14:30 EST   -0.11   1.34   17   10   22  50.2  57.7 1028.4 22.0  1.017 -99.9 -99.99 -9.99
2020/02/22 14:36 EST   -0.06   1.34   17   14   23  50.0  57.7 1028.5 22.0  1.017 -99.9 -99.99 -9.99
2020/02/22 14:42 EST   -0.01   1.37   17   14   22  50.0  57.7 1028.5 22.0  1.017 -99.9 -99.99 -9.99
2020/02/22 14:48 EST    0.05   1.40   18   12   23  49.8  57.7 1028.4 22.0  1.017 -99.9 -99.99 -9.99
2020/02/22 14:54 EST    0.11   1.42   16   20   22  50.0  57.7 1028.4 22.0  1.017 -99.9 -99.99 -9.99
2020/02/22 15:00 EST    0.18   1.44   18   19   22  50.0  57.7 1028.3 22.0  1.017 -99.9 -99.99 -9.99
2020/02/22 15:06 EST    0.25   1.48   16   16   21  50.0  57.9 1028.2 22.0  1.017 -99.9 -99.99 -9.99
2020/02/22 15:12 EST    0.33   1.52   17   16   20  49.6  57.9 1028.1 22.0  1.017 -99.9 -99.99 -9.99
2020/02/22 15:18 EST    0.41   1.58   18   16   22  50.0  57.9 1028.0 22.0  1.017 -99.9 -99.99 -9.99
2020/02/22 15:24 EST    0.49   1.63   15   13   21  50.2  57.9 1028.0 22.0  1.017 -99.9 -99.99 -9.99
2020/02/22 15:30 EST    0.58   1.71   17   19   23  50.0  57.9 1028.0 22.0  1.017 -99.9 -99.99 -9.99
2020/02/22 15:36 EST    0.67   1.83   17   16   22  50.7  57.9 1028.0 22.0  1.017 -99.9 -99.99 -9.99
2020/02/22 15:42 EST    0.76   1.91   18   24   23  49.6  57.9 1027.9 22.0  1.017 -99.9 -99.99 -9.99
2020/02/22 15:48 EST    0.85   2.03   17   32   20  50.0  57.9 1027.9 22.0  1.017 -99.9 -99.99 -9.99
2020/02/22 15:54 EST    0.95   2.13   17   25   20  50.0  57.9 1027.8 22.0  1.017 -99.9 -99.99 -9.99
2020/02/22 16:00 EST    1.04   2.19   15   17   21  50.2  57.9 1027.9 22.0  1.017 -99.9 -99.99 -9.99
2020/02/22 16:06 EST    1.14   2.28   18   12   22  49.8  58.1 1028.0 21.9  1.017 -99.9 -99.99 -9.99
2020/02/22 16:12 EST    1.24   2.38   17   15   21  50.0  58.1 1027.9 22.0  1.017 -99.9 -99.99 -9.99
2020/02/22 16:18 EST    1.34   2.49   16   27   20  50.2  57.9 1028.0 22.0  1.017 -99.9 -99.99 -9.99
2020/02/22 16:24 EST    1.44   2.62   15   22   19  50.4  57.9 1027.9 22.0  1.017 -99.9 -99.99 -9.99
2020/02/22 16:30 EST    1.54   2.81   17   18   20  50.0  57.9 1028.0 22.0  1.017 -99.9 -99.99 -9.99
2020/02/22 16:36 EST    1.65   2.86   17   21   20  50.4  57.9 1027.9 22.0  1.017 -99.9 -99.99 -9.99
2020/02/22 16:42 EST    1.75   2.96   16   17   20  50.4  57.9 1027.9 22.0  1.017 -99.9 -99.99 -9.99
2020/02/22 16:48 EST    1.85   3.08   14   22   19  50.7  57.9 1027.9 22.0  1.017 -99.9 -99.99 -9.99
2020/02/22 16:54 EST    1.95   3.15   15   27   20  50.5  57.9 1027.9 22.0  1.017 -99.9 -99.99 -9.99
2020/02/22 17:00 EST    2.05   3.28   15   23   20  50.4  57.7 1027.9 22.0  1.017 -99.9 -99.99 -9.99
2020/02/22 17:06 EST    2.15   3.37   13   23   17  50.5  57.7 1028.1 22.0  1.017 -99.9 -99.99 -9.99
2020/02/22 17:12 EST    2.25   3.47   15   14   17  50.2  57.7 1028.0 22.0  1.017 -99.9 -99.99 -9.99
2020/02/22 17:18 EST    2.35   3.56   13   26   17  50.4  57.7 1027.9 22.0  1.017 -99.9 -99.99 -9.99
2020/02/22 17:24 EST    2.45   3.66   14   23   17  50.2  57.7 1027.9 22.0  1.017 -99.9 -99.99 -9.99
2020/02/22 17:30 EST    2.55   3.73   13   22   16  50.4  57.7 1027.8 22.0  1.017 -99.9 -99.99 -9.99
2020/02/22 17:36 EST    2.65   3.86   13   28   16  50.4  57.7 1027.8 22.0  1.017 -99.9 -99.99 -9.99
2020/02/22 17:42 EST    2.74   3.93   13   23   16  50.4  57.7 1027.7 22.0  1.017 -99.9 -99.99 -9.99
2020/02/22 17:48 EST    2.83   4.04   12   29   16  50.4  57.7 1027.8 22.0  1.017 -99.9 -99.99 -9.99
2020/02/22 17:54 EST    2.92   4.15   11   23   16  50.7  57.9 1027.9 22.0  1.017 -99.9 -99.99 -9.99
2020/02/22 18:00 EST    3.01   4.25   11   21   15  50.5  57.9 1027.8 22.0  1.017 -99.9 -99.99 -9.99
2020/02/22 18:06 EST    3.10   4.34   12   24   14  50.5  57.9 1027.8 22.0  1.017 -99.9 -99.99 -9.99
2020/02/22 18:12 EST    3.18   4.47   11   23   15  50.7  57.9 1027.8 22.1  1.017 -99.9 -99.99 -9.99
2020/02/22 18:18 EST    3.26   4.50   11   24   14  50.5  57.9 1028.0 22.0  1.017 -99.9 -99.99 -9.99
2020/02/22 18:24 EST    3.34   4.62   11   28   13  50.5  57.9 1028.0 22.0  1.017 -99.9 -99.99 -9.99
2020/02/22 18:30 EST    3.42   4.62   11   23   13  50.5  57.9 1027.9 22.0  1.017 -99.9 -99.99 -9.99
2020/02/22 18:36 EST    3.49   4.69   11   24   14  50.5  57.9 1027.7 22.0  1.017 -99.9 -99.99 -9.99
2020/02/22 18:42 EST    3.56   4.80   11   23   12  50.7  57.9 1027.7 22.0  1.017 -99.9 -99.99 -9.99
2020/02/22 18:48 EST    3.63   4.94   12   28   14  50.7  57.9 1027.6 22.0  1.017 -99.9 -99.99 -9.99
2020/02/22 18:54 EST    3.69   4.87   11   23   14  50.7  57.9 1027.6 22.0  1.017 -99.9 -99.99 -9.99
2020/02/22 19:00 EST    3.75   5.06   11   25   14  50.9  57.7 1027.6 22.0  1.017 -99.9 -99.99 -9.99
2020/02/22 19:06 EST    3.81   5.08   12   28   15  50.9  57.7 1027.6 21.9  1.017 -99.9 -99.99 -9.99
2020/02/22 19:12 EST    3.86   5.11   12   23   14  50.9  57.7 1027.5 21.9  1.017 -99.9 -99.99 -9.99
2020/02/22 19:18 EST    3.91   5.15   11   19   14  51.1  57.6 1027.5 21.9  1.017 -99.9 -99.99 -9.99
2020/02/22 19:24 EST    3.95   5.20   11   25   15  51.1  57.6 1027.5 21.9  1.017 -99.9 -99.99 -9.99
2020/02/22 19:30 EST    3.99   5.26   11   25   14  51.1  57.6 1027.6 21.9  1.017 -99.9 -99.99 -9.99
2020/02/22 19:36 EST    4.02   5.34   13   27   15  51.1  57.6 1027.5 21.8  1.017 -99.9 -99.99 -9.99
2020/02/22 19:42 EST    4.05   5.36   12   23   14  51.4  57.6 1027.5 21.8  1.017 -99.9 -99.99 -9.99
2020/02/22 19:48 EST    4.08   5.40   10   23   15  51.4  57.6 1027.5 21.8  1.017 -99.9 -99.99 -9.99
2020/02/22 19:54 EST    4.10   5.42   10   27   14  51.3  57.6 1027.6 21.8  1.017 -99.9 -99.99 -9.99
2020/02/22 20:00 EST    4.11   5.47   12   25   15  51.4  57.6 1027.6 21.8  1.017 -99.9 -99.99 -9.99
2020/02/22 20:06 EST    4.12   5.50   11   24   13  51.6  57.6 1027.6 21.8  1.017 -99.9 -99.99 -9.99
2020/02/22 20:12 EST    4.12   5.52   11   23   13  51.4  57.6 1027.5 21.8  1.017 -99.9 -99.99 -9.99
2020/02/22 20:18 EST    4.12   5.54   10   22   13  51.4  57.6 1027.5 21.7  1.017 -99.9 -99.99 -9.99
2020/02/22 20:24 EST    4.11   5.47   11   28   14  51.6  57.6 1027.6 21.7  1.017 -99.9 -99.99 -9.99
2020/02/22 20:30 EST    4.09   5.49   10   23   14  51.6  57.6 1027.6 21.7  1.017 -99.9 -99.99 -9.99
2020/02/22 20:36 EST    4.07   5.34   10   22   14  51.6  57.4 1027.6 21.8  1.017 -99.9 -99.99 -9.99
2020/02/22 20:42 EST    4.04   5.50    8   32   13  51.8  57.4 1027.5 21.7  1.017 -99.9 -99.99 -9.99
2020/02/22 20:48 EST    4.00   5.50   10   26   13  51.8  57.4 1027.7 21.7  1.017 -99.9 -99.99 -9.99
2020/02/22 20:54 EST    3.96   5.48   12   27   14  51.8  57.4 1027.7 21.7  1.017 -99.9 -99.99 -9.99
2020/02/22 21:00 EST    3.91   5.41   11   28   12  51.8  57.4 1027.7 21.7  1.017 -99.9 -99.99 -9.99
2020/02/22 21:06 EST    3.86   5.52   12   28   14  51.8  57.4 1027.7 21.6  1.017 -99.9 -99.99 -9.99
2020/02/22 21:12 EST    3.80   5.40   10   28   12  51.8  57.4 1027.7 21.6  1.017 -99.9 -99.99 -9.99
2020/02/22 21:18 EST    3.73   5.34   12   28   13  51.8  57.6 1027.8 21.7  1.017 -99.9 -99.99 -9.99
2020/02/22 21:24 EST    3.65   5.28   10   25   13  52.0  57.6 1027.8 21.6  1.017 -99.9 -99.99 -9.99
2020/02/22 21:30 EST    3.57   5.22    9   23   12  52.0  57.4 1027.8 21.7  1.017 -99.9 -99.99 -9.99
2020/02/22 21:36 EST    3.49   5.21   10   27   11  52.0  57.4 1027.9 21.7  1.017 -99.9 -99.99 -9.99
2020/02/22 21:42 EST    3.39   5.12   10   23   13  52.0  57.4 1028.0 21.7  1.017 -99.9 -99.99 -9.99
2020/02/22 21:48 EST    3.30   5.03    9   26   12  52.0  57.4 1028.0 21.7  1.017 -99.9 -99.99 -9.99
2020/02/22 21:54 EST    3.20   4.95    9   26   12  52.2  57.4 1028.0 21.7  1.017 -99.9 -99.99 -9.99
2020/02/22 22:00 EST    3.09   4.81   10   20   12  52.0  57.4 1027.9 21.7  1.017 -99.9 -99.99 -9.99
2020/02/22 22:06 EST    2.98   4.77    8   25   12  52.0  57.4 1027.8 21.7  1.017 -99.9 -99.99 -9.99
2020/02/22 22:12 EST    2.87   4.68   10   25   11  51.8  57.4 1027.6 21.7  1.017 -99.9 -99.99 -9.99
2020/02/22 22:18 EST    2.75   4.55   10   28   12  52.0  57.4 1027.6 21.7  1.017 -99.9 -99.99 -9.99
2020/02/22 22:24 EST    2.63   4.43   10   24   12  52.0  57.4 1027.5 21.7  1.017 -99.9 -99.99 -9.99
2020/02/22 22:30 EST    2.51   4.30   10   22   12  52.0  57.4 1027.4 21.7  1.017 -99.9 -99.99 -9.99
2020/02/22 22:36 EST    2.39   4.18   10   26   13  52.2  57.4 1027.4 21.7  1.017 -99.9 -99.99 -9.99
2020/02/22 22:42 EST    2.27   4.06    9   28   11  52.2  57.4 1027.5 21.7  1.017 -99.9 -99.99 -9.99
2020/02/22 22:48 EST    2.14   3.88    9   25   11  52.2  57.4 1027.4 21.7  1.017 -99.9 -99.99 -9.99
2020/02/22 22:54 EST    2.02   3.73    9   17   12  52.3  57.4 1027.4 22.0  1.017 -99.9 -99.99 -9.99
2020/02/22 23:00 EST    1.90   3.59    9   24   11  52.5  57.4 1027.5 22.0  1.017 -99.9 -99.99 -9.99
2020/02/22 23:06 EST    1.78   3.46    9   14   11  52.5  57.4 1027.4 21.9  1.017 -99.9 -99.99 -9.99
2020/02/22 23:12 EST    1.66   3.33    9   22   12  52.7  57.4 1027.3 21.9  1.017 -99.9 -99.99 -9.99
2020/02/22 23:18 EST    1.54   3.19    9   22   11  52.5  57.4 1027.2 21.9  1.017 -99.9 -99.99 -9.99
2020/02/22 23:24 EST    1.42   3.05    8   18   10  52.7  57.4 1027.2 21.9  1.017 -99.9 -99.99 -9.99
2020/02/22 23:30 EST    1.30   2.92    9   23   11  52.5  57.4 1027.1 21.9  1.017 -99.9 -99.99 -9.99
2020/02/22 23:36 EST    1.19   2.80    9   19   10  52.7  57.4 1027.0 21.9  1.017 -99.9 -99.99 -9.99
2020/02/22 23:42 EST    1.08   2.65    8   17   11  52.7  57.4 1026.9 21.9  1.017 -99.9 -99.99 -9.99
2020/02/22 23:48 EST    0.97   2.52    7   15   10  52.7  57.4 1026.9 21.9  1.017 -99.9 -99.99 -9.99
2020/02/22 23:54 EST    0.87   2.42    8   15   10  52.5  57.4 1026.9 21.9  1.017 -99.9 -99.99 -9.99
2020/02/23 00:00 EST    0.77   2.29    7   15    9  52.5  57.4 1026.7 21.9  1.017 -99.9 -99.99 -9.99
2020/02/23 00:06 EST    0.67   2.14    8   17   10  52.7  57.4 1026.7 21.9  1.017 -99.9 -99.99 -9.99
2020/02/23 00:12 EST    0.58   2.01    6    7    9  52.2  57.2 1026.8 21.9  1.017 -99.9 -99.99 -9.99
2020/02/23 00:18 EST    0.49   1.91    6    1    8  52.0  57.2 1026.5 21.9  1.017 -99.9 -99.99 -9.99
2020/02/23 00:24 EST    0.40   1.82    5    2    7  51.8  57.2 1026.5 22.0  1.017 -99.9 -99.99 -9.99
2020/02/23 00:30 EST    0.32   1.75    6    8    7  51.8  57.2 1026.5 22.0  1.017 -99.9 -99.99 -9.99
2020/02/23 00:36 EST    0.24   1.66    6    5    8  52.0  57.2 1026.4 22.0  1.017 -99.9 -99.99 -9.99
2020/02/23 00:42 EST    0.16   1.59    7    8    9  52.0  57.2 1026.3 22.0  1.017 -99.9 -99.99 -9.99
2020/02/23 00:48 EST    0.09   1.48    6    8    8  52.0  57.2 1026.2 22.0  1.017 -99.9 -99.99 -9.99
2020/02/23 00:54 EST    0.03   1.39    7   11    8  52.3  57.2 1026.1 22.0  1.017 -99.9 -99.99 -9.99
2020/02/23 01:00 EST   -0.03   1.30    7    8    9  52.2  57.2 1026.1 22.0  1.017 -99.9 -99.99 -9.99
2020/02/23 01:06 EST   -0.09   1.21    6    6    8  51.8  57.2 1026.2 21.9  1.017 -99.9 -99.99 -9.99
2020/02/23 01:12 EST   -0.14   1.16    7   14    9  52.2  57.2 1026.2 21.9  1.017 -99.9 -99.99 -9.99
2020/02/23 01:18 EST   -0.18   1.09    7   11    9  52.2  57.2 1026.1 21.9  1.017 -99.9 -99.99 -9.99
2020/02/23 01:24 EST   -0.22   1.04    7   13    9  52.3  57.2 1026.2 21.9  1.017 -99.9 -99.99 -9.99
2020/02/23 01:30 EST   -0.25   1.00    6    8   10  52.3  57.2 1026.1 21.9  1.017 -99.9 -99.99 -9.99
2020/02/23 01:36 EST   -0.28   1.00    8   21   10  52.5  57.2 1026.0 21.9  1.017 -99.9 -99.99 -9.99
2020/02/23 01:42 EST   -0.30   0.90    8   14   10  52.5  57.2 1025.8 21.9  1.017 -99.9 -99.99 -9.99
2020/02/23 01:48 EST   -0.32   0.88    8   15   10  52.5  57.2 1025.7 21.9  1.017 -99.9 -99.99 -9.99
2020/02/23 01:54 EST   -0.32   0.86    7   11   10  52.7  57.2 1025.7 21.9  1.017 -99.9 -99.99 -9.99
2020/02/23 02:00 EST   -0.32   0.82    7   17   10  52.7  57.2 1025.6 21.9  1.017 -99.9 -99.99 -9.99
2020/02/23 02:06 EST   -0.32   0.79    7   14   10  53.1  57.2 1025.5 21.9  1.017 -99.9 -99.99 -9.99
2020/02/23 02:12 EST   -0.31   0.82    7   15   10  53.4  57.2 1025.5 21.9  1.017 -99.9 -99.99 -9.99
2020/02/23 02:18 EST   -0.29   0.82    7   17   10  53.4  57.2 1025.5 21.9  1.017 -99.9 -99.99 -9.99
2020/02/23 02:24 EST   -0.26   0.84    7   11    8  53.2  57.0 1025.5 21.9  1.017 -99.9 -99.99 -9.99
2020/02/23 02:30 EST   -0.23   0.87    7   13    9  53.2  57.0 1025.5 21.9  1.017 -99.9 -99.99 -9.99
2020/02/23 02:36 EST   -0.19   0.88    8   25   10  53.6  57.0 1025.5 21.9  1.017 -99.9 -99.99 -9.99
2020/02/23 02:42 EST   -0.14   0.86    8   16   11  53.8  57.0 1025.4 21.9  1.017 -99.9 -99.99 -9.99
2020/02/23 02:48 EST   -0.09   0.89   10   27   13  54.1  57.0 1025.0 21.9  1.017 -99.9 -99.99 -9.99
2020/02/23 02:54 EST   -0.04   0.94   12   25   14  54.3  57.0 1025.0 21.9  1.017 -99.9 -99.99 -9.99
2020/02/23 03:00 EST    0.03   0.98   10   29   12  54.3  57.0 1025.0 21.9  1.017 -99.9 -99.99 -9.99
2020/02/23 03:06 EST    0.09   1.08   10   26   13  54.5  57.0 1025.1 21.8  1.017 -99.9 -99.99 -9.99
2020/02/23 03:12 EST    0.17   1.14    9   20   12  54.5  57.0 1025.1 21.8  1.017 -99.9 -99.99 -9.99
2020/02/23 03:18 EST    0.24   1.24    7    6   11  54.0  57.0 1025.1 21.8  1.017 -99.9 -99.99 -9.99
2020/02/23 03:24 EST    0.33   1.32    6    3    8  53.2  57.0 1025.1 21.8  1.017 -99.9 -99.99 -9.99
2020/02/23 03:30 EST    0.41   1.37    6    4    9  53.1  57.0 1025.1 21.8  1.017 -99.9 -99.99 -9.99
2020/02/23 03:36 EST    0.50   1.46    6    2    8  53.1  57.0 1025.1 21.8  1.017 -99.9 -99.99 -9.99
2020/02/23 03:42 EST    0.59   1.57    5  340    7  51.8  57.0 1025.1 21.8  1.017 -99.9 -99.99 -9.99
2020/02/23 03:48 EST    0.68   1.68    4  315    6  49.5  57.0 1025.1 21.8  1.017 -99.9 -99.99 -9.99
2020/02/23 03:54 EST    0.78   1.81    4  316    5  48.7  57.0 1025.1 21.8  1.017 -99.9 -99.99 -9.99
2020/02/23 04:00 EST    0.88   1.93    4  325    5  48.7  57.0 1025.0 21.8  1.017 -99.9 -99.99 -9.99
2020/02/23 04:06 EST    0.98   2.04    4  344    5  49.3  57.0 1025.0 21.8  1.017 -99.9 -99.99 -9.99
2020/02/23 04:12 EST    1.08   2.14    3  342    5  49.6  57.0 1025.0 21.7  1.017 -99.9 -99.99 -9.99
2020/02/23 04:18 EST    1.19   2.24    3  349    4  50.0  57.0 1025.0 21.7  1.017 -99.9 -99.99 -9.99
2020/02/23 04:24 EST    1.29   2.37    4  356    6  50.4  57.0 1024.9 21.8  1.017 -99.9 -99.99 -9.99
2020/02/23 04:30 EST    1.40   2.49    4  346    5  50.9  57.2 1025.2 21.7  1.017 -99.9 -99.99 -9.99
2020/02/23 04:36 EST    1.51   2.60    5    1    7  51.4  57.2 1025.0 21.7  1.017 -99.9 -99.99 -9.99
2020/02/23 04:42 EST    1.61   2.72    4  346    6  51.3  57.0 1025.0 21.8  1.017 -99.9 -99.99 -9.99
2020/02/23 04:48 EST    1.72   2.83    4  350    5  51.1  57.2 1025.1 21.8  1.017 -99.9 -99.99 -9.99
2020/02/23 04:54 EST    1.83   2.96    4  347    6  51.4  57.0 1025.2 21.8  1.017 -99.9 -99.99 -9.99
2020/02/23 05:00 EST    1.94   3.08    4  315    5  49.6  57.4 1025.3 21.9  1.017 -99.9 -99.99 -9.99
2020/02/23 05:06 EST    2.05   3.20    4  323    5  49.1  57.4 1025.2 21.9  1.017 -99.9 -99.99 -9.99
2020/02/23 05:12 EST    2.15   3.30    4  336    5  49.5  57.4 1025.3 21.9  1.017 -99.9 -99.99 -9.99
2020/02/23 05:18 EST    2.26   3.44    5  330    6  49.5  57.4 1025.3 21.9  1.017 -99.9 -99.99 -9.99
2020/02/23 05:24 EST    2.37   3.55    5  329    6  49.3  57.4 1025.5 21.9  1.017 -99.9 -99.99 -9.99
2020/02/23 05:30 EST    2.48   3.66    5  330    6  49.6  57.4 1025.6 21.9  1.017 -99.9 -99.99 -9.99
2020/02/23 05:36 EST    2.58   3.77    5  327    6  49.3  57.2 1025.6 21.8  1.017 -99.9 -99.99 -9.99
2020/02/23 05:42 EST    2.69   3.88    5  334    6  49.8  57.4 1025.7 21.9  1.017 -99.9 -99.99 -9.99
2020/02/23 05:48 EST    2.79   3.99    4  347    6  49.6  57.4 1025.7 21.8  1.017 -99.9 -99.99 -9.99
2020/02/23 05:54 EST    2.89   4.09    4    5    6  51.6  57.4 1025.6 21.9  1.017 -99.9 -99.99 -9.99
2020/02/23 06:00 EST    2.99   4.18    6   12    9  52.9  57.4 1025.5 21.9  1.017 -99.9 -99.99 -9.99
2020/02/23 06:06 EST    3.09   4.27    7   10    8  53.2  57.4 1025.5 21.8  1.017 -99.9 -99.99 -9.99
2020/02/23 06:12 EST    3.19   4.38    8   15   10  53.4  57.4 1025.4 21.9  1.017 -99.9 -99.99 -9.99
2020/02/23 06:18 EST    3.29   4.49    8   23   10  53.6  57.4 1025.3 21.9  1.017 -99.9 -99.99 -9.99
2020/02/23 06:24 EST    3.38   4.57   10   24   12  54.0  57.4 1025.4 21.9  1.017 -99.9 -99.99 -9.99
2020/02/23 06:30 EST    3.48   4.65   11   26   13  54.0  57.4 1025.4 21.9  1.017 -99.9 -99.99 -9.99
2020/02/23 06:36 EST    3.57   4.74   10   22   12  54.1  57.4 1025.3 21.8  1.017 -99.9 -99.99 -9.99
2020/02/23 06:42 EST    3.65   4.84   10   21   12  54.3  57.4 1025.3 21.8  1.017 -99.9 -99.99 -9.99
2020/02/23 06:48 EST    3.74   4.91    9   22   12  54.1  57.2 1025.3 21.8  1.017 -99.9 -99.99 -9.99
2020/02/23 06:54 EST    3.82   4.97   10   27   11  54.1  57.2 1025.3 21.7  1.017 -99.9 -99.99 -9.99
2020/02/23 07:00 EST    3.90   5.05   10   23   12  54.3  57.2 1025.5 21.7  1.017 -99.9 -99.99 -9.99
2020/02/23 07:06 EST    3.97   5.14    9   19   13  54.3  57.2 1025.7 21.7  1.017 -99.9 -99.99 -9.99
2020/02/23 07:12 EST    4.05   5.19    6   10   10  54.0  57.2 1025.8 21.7  1.017 -99.9 -99.99 -9.99
2020/02/23 07:18 EST    4.12   5.26    8   22   10  54.3  57.2 1025.7 21.7  1.017 -99.9 -99.99 -9.99
2020/02/23 07:24 EST    4.18   5.32    9   28   10  54.3  57.2 1025.6 21.7  1.017 -99.9 -99.99 -9.99
2020/02/23 07:30 EST    4.24   5.37    9   28   11  54.5  57.2 1025.7 21.7  1.017 -99.9 -99.99 -9.99
2020/02/23 07:36 EST    4.30   5.46    9   22   12  54.5  57.2 1025.7 21.7  1.017 -99.9 -99.99 -9.99
2020/02/23 07:42 EST    4.36   5.47    8   20   11  54.7  57.2 1025.7 21.7  1.017 -99.9 -99.99 -9.99
2020/02/23 07:48 EST    4.40   5.51    9   26   11  54.9  57.2 1025.7 21.6  1.017 -99.9 -99.99 -9.99
2020/02/23 07:54 EST    4.45   5.63   11   30   13  55.0  57.2 1025.6 21.6  1.017 -99.9 -99.99 -9.99
2020/02/23 08:00 EST    4.49   5.64   11   34   13  55.0  57.2 1025.4 21.6  1.017 -99.9 -99.99 -9.99
2020/02/23 08:06 EST    4.52   5.72   12   40   14  55.2  57.2 1025.4 21.6  1.017 -99.9 -99.99 -9.99
2020/02/23 08:12 EST    4.55   5.72   11   33   14  55.4  57.0 1025.6 21.6  1.017 -99.9 -99.99 -9.99
2020/02/23 08:18 EST    4.58   5.75   10   34   13  55.6  57.0 1025.6 21.6  1.017 -99.9 -99.99 -9.99
2020/02/23 08:24 EST    4.60   5.81   10   29   12  55.8  57.0 1025.8 21.6  1.017 -99.9 -99.99 -9.99
2020/02/23 08:30 EST    4.61   5.82   12   35   13  55.6  57.0 1025.7 21.6  1.017 -99.9 -99.99 -9.99
2020/02/23 08:36 EST    4.62   5.80   11   28   14  55.8  57.0 1026.0 21.6  1.017 -99.9 -99.99 -9.99
2020/02/23 08:42 EST    4.62   5.83   11   20   14  55.9  57.0 1026.2 21.6  1.017 -99.9 -99.99 -9.99
2020/02/23 08:48 EST    4.61   5.83   13   26   14  55.9  57.0 1026.2 21.6  1.017 -99.9 -99.99 -9.99
2020/02/23 08:54 EST    4.60   5.83   10   30   14  56.3  57.0 1026.1 21.6  1.017 -99.9 -99.99 -9.99
2020/02/23 09:00 EST    4.58   5.84   10   33   13  56.3  57.0 1026.1 21.6  1.017 -99.9 -99.99 -9.99
2020/02/23 09:06 EST    4.55   5.83   11   39   13  56.3  57.0 1026.2 21.6  1.017 -99.9 -99.99 -9.99
2020/02/23 09:12 EST    4.52   5.80   12   30   14  56.1  57.0 1026.2 21.6  1.017 -99.9 -99.99 -9.99
2020/02/23 09:18 EST    4.48   5.80   11   31   13  56.3  57.0 1026.3 21.6  1.017 -99.9 -99.99 -9.99
2020/02/23 09:24 EST    4.43   5.78   11   28   14  56.5  57.0 1026.3 21.6  1.017 -99.9 -99.99 -9.99
2020/02/23 09:30 EST    4.38   5.77   12   38   15  56.5  57.0 1026.2 21.6  1.017 -99.9 -99.99 -9.99
2020/02/23 09:36 EST    4.32   5.72   11   34   14  56.7  57.2 1026.4 21.6  1.017 -99.9 -99.99 -9.99
2020/02/23 09:42 EST    4.25   5.66   11   37   13  56.7  57.2 1026.4 21.6  1.017 -99.9 -99.99 -9.99
2020/02/23 09:48 EST    4.17   5.63   10   22   12  56.8  57.2 1026.5 21.6  1.017 -99.9 -99.99 -9.99
2020/02/23 09:54 EST    4.09   5.58    9   21   12  56.8  57.2 1026.6 21.6  1.017 -99.9 -99.99 -9.99
2020/02/23 10:00 EST    4.00   5.48   11   18   12  56.8  57.2 1026.6 21.6  1.017 -99.9 -99.99 -9.99
2020/02/23 10:06 EST    3.90   5.39   10   18   13  57.0  57.2 1026.6 21.6  1.017 -99.9 -99.99 -9.99
2020/02/23 10:12 EST    3.80   5.31   10   26   12  57.0  57.2 1026.5 21.6  1.017 -99.9 -99.99 -9.99
2020/02/23 10:18 EST    3.70   5.23   11   28   13  57.2  57.2 1026.4 21.6  1.017 -99.9 -99.99 -9.99
2020/02/23 10:24 EST    3.59   5.11    9   26   12  57.2  57.2 1026.3 21.6  1.017 -99.9 -99.99 -9.99
2020/02/23 10:30 EST    3.47   4.98   11   31   13  57.0  57.2 1026.3 21.6  1.017 -99.9 -99.99 -9.99
2020/02/23 10:36 EST    3.35   4.88   11   25   13  57.0  57.2 1026.5 21.6  1.017 -99.9 -99.99 -9.99
2020/02/23 10:42 EST    3.23   4.77   10   22   13  57.4  57.0 1026.5 21.6  1.017 -99.9 -99.99 -9.99
2020/02/23 10:48 EST    3.10   4.64   11   13   13  57.2  57.0 1026.4 21.6  1.017 -99.9 -99.99 -9.99
2020/02/23 10:54 EST    2.97   4.53   11   19   13  57.4  57.0 1026.2 21.6  1.017 -99.9 -99.99 -9.99
2020/02/23 11:00 EST    2.84   4.37   11   20   14  57.2  57.2 1026.2 21.5  1.017 -99.9 -99.99 -9.99
2020/02/23 11:06 EST    2.71   4.16   10   13   14  57.2  57.2 1026.3 21.5  1.017 -99.9 -99.99 -9.99
2020/02/23 11:12 EST    2.58   4.04   10   16   13  57.2  57.2 1026.3 21.6  1.017 -99.9 -99.99 -9.99
2020/02/23 11:18 EST    2.44   3.86   11   19   13  57.0  57.2 1026.1 21.5  1.017 -99.9 -99.99 -9.99
2020/02/23 11:24 EST    2.31   3.68    9   22   13  57.7  57.2 1026.2 21.6  1.017 -99.9 -99.99 -9.99
2020/02/23 11:30 EST    2.18   3.50   10   19   13  57.7  57.2 1026.3 21.6  1.017 -99.9 -99.99 -9.99
2020/02/23 11:36 EST    2.05   3.35   10   16   14  57.9  57.2 1026.4 21.6  1.017 -99.9 -99.99 -9.99
2020/02/23 11:42 EST    1.91   3.20    9   16   11  58.1  57.4 1026.4 21.5  1.017 -99.9 -99.99 -9.99
2020/02/23 11:48 EST    1.78   3.07    8   19   12  58.5  57.4 1026.1 21.5  1.017 -99.9 -99.99 -9.99
2020/02/23 11:54 EST    1.66   2.91    8   16   10  58.3  57.4 1025.8 21.5  1.017 -99.9 -99.99 -9.99
2020/02/23 12:00 EST    1.53   2.76    9   11   11  58.3  57.4 1025.7 21.5  1.017 -99.9 -99.99 -9.99
2020/02/23 12:06 EST    1.41   2.63    8   24   10  58.3  57.4 1025.6 21.5  1.017 -99.9 -99.99 -9.99
2020/02/23 12:12 EST    1.29   2.54    7   13   12  58.5  57.4 1025.4 21.5  1.017 -99.9 -99.99 -9.99
2020/02/23 12:18 EST    1.17   2.43    9   20   11  58.5  57.4 1025.4 21.5  1.017 -99.9 -99.99 -9.99
2020/02/23 12:24 EST    1.06   2.29   10   19   12  58.6  57.6 1025.2 21.5  1.017 -99.9 -99.99 -9.99
2020/02/23 12:30 EST    0.94   2.12   10   24   12  58.8  57.6 1025.0 21.5  1.017 -99.9 -99.99 -9.99
2020/02/23 12:36 EST    0.84   1.98   10   27   12  59.0  57.6 1024.8 21.5  1.017 -99.9 -99.99 -9.99
2020/02/23 12:42 EST    0.73   1.84    9   35   11  58.8  57.6 1024.6 21.5  1.017 -99.9 -99.99 -9.99
2020/02/23 12:48 EST    0.63   1.74    9   24   12  59.0  57.7 1024.6 21.5  1.017 -99.9 -99.99 -9.99
2020/02/23 12:54 EST    0.54   1.66   11   25   12  58.8  57.7 1024.5 21.5  1.017 -99.9 -99.99 -9.99
2020/02/23 13:00 EST    0.44   1.59   10   34   12  59.2  57.7 1024.5 21.5  1.017 -99.9 -99.99 -9.99
2020/02/23 13:06 EST    0.36   1.50    9   16   12  59.0  57.7 1024.4 21.5  1.017 -99.9 -99.99 -9.99
2020/02/23 13:12 EST    0.28   1.44   10   28   12  59.0  57.9 1024.2 21.4  1.017 -99.9 -99.99 -9.99
2020/02/23 13:18 EST    0.20   1.38   10   37   12  59.2  57.9 1024.2 21.5  1.017 -99.9 -99.99 -9.99
2020/02/23 13:24 EST    0.12   1.27   10   32   13  59.5  57.9 1024.2 21.5  1.017 -99.9 -99.99 -9.99
2020/02/23 13:30 EST    0.06   1.19   10   32   11  59.5  58.1 1024.1 21.4  1.017 -99.9 -99.99 -9.99
2020/02/23 13:36 EST   -0.00   1.14    9   35   11  59.5  58.1 1023.9 21.4  1.017 -99.9 -99.99 -9.99
2020/02/23 13:42 EST   -0.06   1.07   10   29   13  59.2  58.1 1023.7 21.4  1.017 -99.9 -99.99 -9.99
2020/02/23 13:48 EST   -0.11   1.02   11   39   13  59.2  58.1 1023.4 21.4  1.017 -99.9 -99.99 -9.99
2020/02/23 13:54 EST   -0.15   0.95   12   41   13  58.6  58.3 1023.3 21.5  1.017 -99.9 -99.99 -9.99
2020/02/23 14:00 EST   -0.19   0.90   11   42   14  58.5  58.3 1023.3 21.5  1.017 -99.9 -99.99 -9.99
2020/02/23 14:06 EST   -0.22   0.88   10   41   12  58.8  58.3 1023.1 21.5  1.017 -99.9 -99.99 -9.99
2020/02/23 14:12 EST   -0.25   0.81   10   39   12  58.6  58.3 1023.1 21.5  1.017 -99.9 -99.99 -9.99
2020/02/23 14:18 EST   -0.26   0.83   10   36   13  59.2  58.5 1022.9 21.5  1.017 -99.9 -99.99 -9.99
2020/02/23 14:24 EST   -0.27   0.83   11   41   13  58.5  58.5 1023.0 21.5  1.017 -99.9 -99.99 -9.99
2020/02/23 14:30 EST   -0.27   0.80   10   37   13  58.6  58.5 1023.1 21.5  1.017 -99.9 -99.99 -9.99
2020/02/23 14:36 EST   -0.27   0.76   11   36   12  59.2  58.5 1023.1 21.5  1.017 -99.9 -99.99 -9.99
2020/02/23 14:42 EST   -0.26   0.72   10   29   12  59.4  58.5 1022.9 21.5  1.017 -99.9 -99.99 -9.99
2020/02/23 14:48 EST   -0.24   0.73   11   39   13  59.2  58.5 1022.9 21.5  1.017 -99.9 -99.99 -9.99
2020/02/23 14:54 EST   -0.21   0.72   12   41   13  58.6  58.6 1022.8 21.4  1.016 -99.9 -99.99 -9.99
2020/02/23 15:00 EST   -0.18   0.73   11   42   13  58.6  58.6 1022.7 21.4  1.016 -99.9 -99.99 -9.99
2020/02/23 15:06 EST   -0.14   0.75   10   37   13  59.0  58.6 1022.7 21.4  1.016 -99.9 -99.99 -9.99
2020/02/23 15:12 EST   -0.10   0.77   11   28   12  58.5  58.6 1022.7 21.5  1.017 -99.9 -99.99 -9.99
2020/02/23 15:18 EST   -0.05   0.80    9   37   12  59.2  58.6 1022.7 21.4  1.017 -99.9 -99.99 -9.99
2020/02/23 15:24 EST    0.01   0.85   10   28   11  58.8  58.6 1022.7 21.5  1.017 -99.9 -99.99 -9.99
2020/02/23 15:30 EST    0.07   0.90    9   28   11  58.8  58.6 1022.8 21.5  1.017 -99.9 -99.99 -9.99
2020/02/23 15:36 EST    0.14   0.96   12   43   13  58.5  58.6 1022.7 21.5  1.017 -99.9 -99.99 -9.99
2020/02/23 15:42 EST    0.21   1.04   10   35   12  58.6  58.6 1022.6 21.5  1.017 -99.9 -99.99 -9.99
2020/02/23 15:48 EST    0.29   1.13   10   40   12  58.8  58.6 1022.5 21.5  1.017 -99.9 -99.99 -9.99
2020/02/23 15:54 EST    0.37   1.21   10   38   12  58.6  58.6 1022.6 21.5  1.017 -99.9 -99.99 -9.99
2020/02/23 16:00 EST    0.46   1.32    9   33   10  58.8  58.8 1022.7 21.4  1.016 -99.9 -99.99 -9.99
2020/02/23 16:06 EST    0.55   1.42    9   33   11  58.8  58.6 1022.5 21.4  1.016 -99.9 -99.99 -9.99
2020/02/23 16:12 EST    0.64   1.52    8   33   11  59.0  58.8 1022.5 21.4  1.016 -99.9 -99.99 -9.99
2020/02/23 16:18 EST    0.73   1.62    8   31   11  58.6  58.8 1022.5 21.4  1.016 -99.9 -99.99 -9.99
2020/02/23 16:24 EST    0.83   1.76    8   22   10  59.0  58.8 1022.4 21.4  1.016 -99.9 -99.99 -9.99
2020/02/23 16:30 EST    0.93   1.85    8   35   10  59.2  58.8 1022.3 21.4  1.016 -99.9 -99.99 -9.99
2020/02/23 16:36 EST    1.03   1.93    9   29   10  58.6  58.8 1022.3 21.4  1.016 -99.9 -99.99 -9.99
2020/02/23 16:42 EST    1.13   2.03   10   30   11  58.1  58.8 1022.4 21.1  1.016 -99.9 -99.99 -9.99
2020/02/23 16:48 EST    1.23   2.10    8   23   11  58.3  58.6 1022.5 21.5  1.017 -99.9 -99.99 -9.99
2020/02/23 16:54 EST    1.33   2.20    9   29   11  57.9  58.8 1022.4 21.5  1.016 -99.9 -99.99 -9.99
2020/02/23 17:00 EST    1.44   2.33    9   28   11  58.1  58.8 1022.3 21.5  1.016 -99.9 -99.99 -9.99
2020/02/23 17:06 EST    1.54   2.54    9   26   10  58.3  58.8 1022.4 21.5  1.016 -99.9 -99.99 -9.99
2020/02/23 17:12 EST    1.65   2.40    9   28   10  58.1  58.6 1022.6 21.5  1.017 -99.9 -99.99 -9.99
2020/02/23 17:18 EST    1.75   2.73    9   25   11  58.3  58.6 1022.7 21.5  1.017 -99.9 -99.99 -9.99
2020/02/23 17:24 EST    1.86   2.82    9   25   10  58.1  58.6 1022.5 21.5  1.017 -99.9 -99.99 -9.99
2020/02/23 17:30 EST    1.96   2.97    9   26   10  57.9  58.8 1022.5 21.5  1.017 -99.9 -99.99 -9.99
2020/02/23 17:36 EST    2.07   3.06    9   24   10  57.7  58.5 1022.5 21.5  1.017 -99.9 -99.99 -9.99
2020/02/23 17:42 EST    2.17   3.19    8   25   10  57.9  58.5 1022.5 21.5  1.017 -99.9 -99.99 -9.99
2020/02/23 17:48 EST    2.27   3.29    9   21   10  57.9  58.5 1022.8 21.5  1.017 -99.9 -99.99 -9.99
2020/02/23 17:54 EST    2.37   3.41    9   20   11  57.7  58.5 1022.7 21.5  1.017 -99.9 -99.99 -9.99
2020/02/23 18:00 EST    2.48   3.54    9   25   11  57.6  58.5 1022.7 21.5  1.017 -99.9 -99.99 -9.99
2020/02/23 18:06 EST    2.57   3.52    9   16   11  57.2  58.5 1022.7 21.5  1.017 -99.9 -99.99 -9.99
2020/02/23 18:12 EST    2.67   3.71    8   18   10  57.0  58.3 1022.7 21.5  1.017 -99.9 -99.99 -9.99
2020/02/23 18:18 EST    2.77   3.81    8   23   10  56.8  58.5 1022.7 21.5  1.017 -99.9 -99.99 -9.99
2020/02/23 18:24 EST    2.86   3.86    8   29   10  56.8  58.5 1022.7 21.5  1.017 -99.9 -99.99 -9.99
2020/02/23 18:30 EST    2.96   4.01    8   28    9  56.8  58.3 1022.8 21.5  1.017 -99.9 -99.99 -9.99
2020/02/23 18:36 EST    3.05   4.07    8   24   11  56.8  58.3 1022.9 21.5  1.017 -99.9 -99.99 -9.99
2020/02/23 18:42 EST    3.13   4.16    8   22   10  56.8  58.3 1022.8 21.5  1.017 -99.9 -99.99 -9.99
2020/02/23 18:48 EST    3.22   4.27    8   28   10  56.8  58.1 1022.7 21.5  1.017 -99.9 -99.99 -9.99
2020/02/23 18:54 EST    3.30   4.35   10   29   11  56.8  58.1 1022.7 21.5  1.017 -99.9 -99.99 -9.99
2020/02/23 19:00 EST    3.38   4.44    7   29   11  56.8  58.1 1022.8 21.5  1.017 -99.9 -99.99 -9.99
2020/02/23 19:06 EST    3.46   4.52    7   29    9  56.8  58.1 1022.9 21.5  1.017 -99.9 -99.99 -9.99
2020/02/23 19:12 EST    3.53   4.59    7   37    8  56.7  58.1 1022.7 21.5  1.017 -99.9 -99.99 -9.99
2020/02/23 19:18 EST    3.60   4.68    7   41    9  56.7  58.1 1022.6 21.5  1.017 -99.9 -99.99 -9.99
2020/02/23 19:24 EST    3.67   4.76    8   35    9  56.7  58.1 1022.7 21.5  1.017 -99.9 -99.99 -9.99
2020/02/23 19:30 EST    3.74   4.82    8   36    9  56.7  58.1 1022.6 21.5  1.017 -99.9 -99.99 -9.99
2020/02/23 19:36 EST    3.80   4.88    7   33    9  56.7  58.1 1022.5 21.5  1.017 -99.9 -99.99 -9.99
2020/02/23 19:42 EST    3.85   4.93    7   34    9  56.7  58.1 1022.5 21.5  1.017 -99.9 -99.99 -9.99
2020/02/23 19:48 EST    3.91   5.02    6   31    8  56.7  58.1 1022.6 21.5  1.017 -99.9 -99.99 -9.99
2020/02/23 19:54 EST    3.95   5.08    7   38    8  56.7  58.1 1022.7 21.5  1.017 -99.9 -99.99 -9.99
2020/02/23 20:00 EST    4.00   5.12    6   38    8  56.8  58.1 1022.7 21.5  1.017 -99.9 -99.99 -9.99
2020/02/23 20:06 EST    4.04   5.17    6   43    7  56.8  57.9 1022.6 21.5  1.017 -99.9 -99.99 -9.99
2020/02/23 20:12 EST    4.07   5.22    6   38    8  56.8  57.9 1022.6 21.5  1.017 -99.9 -99.99 -9.99
2020/02/23 20:18 EST    4.10   5.27    6   40    8  56.8  57.9 1022.7 21.5  1.017 -99.9 -99.99 -9.99
2020/02/23 20:24 EST    4.13   5.29    6   44    7  57.0  57.9 1022.6 21.5  1.017 -99.9 -99.99 -9.99
2020/02/23 20:30 EST    4.15   5.30    7   52    8  57.0  57.9 1022.4 21.5  1.017 -99.9 -99.99 -9.99
2020/02/23 20:36 EST    4.17   5.34    7   61    8  57.0  57.7 1022.2 21.6  1.017 -99.9 -99.99 -9.99
2020/02/23 20:42 EST    4.18   5.37    7   53    8  57.0  57.7 1022.4 21.6  1.017 -99.9 -99.99 -9.99
2020/02/23 20:48 EST    4.18   5.40    6   51    7  57.2  57.7 1022.4 21.6  1.017 -99.9 -99.99 -9.99
2020/02/23 20:54 EST    4.18   5.39    6   55    7  57.2  57.7 1022.3 21.6  1.017 -99.9 -99.99 -9.99
2020/02/23 21:00 EST    4.17   5.37    6   57    8  57.2  57.7 1022.3 21.7  1.017 -99.9 -99.99 -9.99
2020/02/23 21:06 EST    4.16   5.39    5   50    6  57.2  57.7 1022.4 21.7  1.017 -99.9 -99.99 -9.99
2020/02/23 21:12 EST    4.14   5.34    5   47    5  57.2  57.7 1022.4 21.7  1.017 -99.9 -99.99 -9.99
2020/02/23 21:18 EST    4.11   5.32    5   45    6  57.2  57.7 1022.3 21.7  1.017 -99.9 -99.99 -9.99
2020/02/23 21:24 EST    4.08   5.34    5   45    6  57.4  57.7 1022.4 21.7  1.017 -99.9 -99.99 -9.99
2020/02/23 21:30 EST    4.04   5.31    5   42    5  57.4  57.7 1022.4 21.7  1.017 -99.9 -99.99 -9.99
2020/02/23 21:36 EST    4.00   5.31    5   49    5  57.2  57.7 1022.2 21.7  1.017 -99.9 -99.99 -9.99
2020/02/23 21:42 EST    3.95   5.26    6   52    8  57.4  57.7 1022.2 21.7  1.017 -99.9 -99.99 -9.99
2020/02/23 21:48 EST    3.89   5.17    5   52    8  57.6  57.7 1022.3 21.7  1.017 -99.9 -99.99 -9.99
2020/02/23 21:54 EST    3.82   5.10    4   45    5  57.4  57.7 1022.2 21.7  1.017 -99.9 -99.99 -9.99
2020/02/23 22:00 EST    3.75   5.07    4   48    4  57.4  57.7 1022.3 21.8  1.017 -99.9 -99.99 -9.99
2020/02/23 22:06 EST    3.67   5.01    4   46    4  57.6  57.7 1022.3 21.8  1.017 -99.9 -99.99 -9.99
2020/02/23 22:12 EST    3.59   4.95    3   41    4  57.4  57.6 1022.2 21.8  1.017 -99.9 -99.99 -9.99
2020/02/23 22:18 EST    3.50   4.86    3   16    3  57.4  57.6 1022.3 21.8  1.017 -99.9 -99.99 -9.99
2020/02/23 22:24 EST    3.41   4.76    2  347    3  57.2  57.6 1022.3 21.8  1.017 -99.9 -99.99 -9.99
2020/02/23 22:30 EST    3.31   4.67    2   16    2  57.2  57.6 1022.2 21.8  1.017 -99.9 -99.99 -9.99
2020/02/23 22:36 EST    3.20   4.55    2   19    3  57.2  57.6 1022.2 21.8  1.017 -99.9 -99.99 -9.99
2020/02/23 22:42 EST    3.09   4.45    1    5    2  57.0  57.6 1022.1 21.8  1.017 -99.9 -99.99 -9.99
2020/02/23 22:48 EST    2.98   4.34    1  344    1  56.8  57.6 1022.2 21.8  1.017 -99.9 -99.99 -9.99
2020/02/23 22:54 EST    2.86   4.18    1  345    1  56.8  57.6 1022.3 21.8  1.017 -99.9 -99.99 -9.99
2020/02/23 23:00 EST    2.74   4.04    1  351    1  56.8  57.6 1022.3 21.8  1.017 -99.9 -99.99 -9.99
2020/02/23 23:06 EST    2.62   3.89    1  341    2  56.7  57.6 1022.2 21.8  1.017 -99.9 -99.99 -9.99
2020/02/23 23:12 EST    2.49   3.73    2  336    2  56.8  57.6 1022.3 21.8  1.017 -99.9 -99.99 -9.99
2020/02/23 23:18 EST    2.37   3.58    1  355    2  56.7  57.6 1022.1 21.4  1.017 -99.9 -99.99 -9.99
2020/02/23 23:24 EST    2.24   3.43    1  335    1  56.7  57.6 1022.0 21.5  1.017 -99.9 -99.99 -9.99
2020/02/23 23:30 EST    2.12   3.30    0  307    1  56.7  57.6 1021.8 21.3  1.017 -99.9 -99.99 -9.99
2020/02/23 23:36 EST    1.99   3.17    0  307    1  56.7  57.6 1021.8 21.3  1.017 -99.9 -99.99 -9.99
2020/02/23 23:42 EST    1.86   2.99    0  307    1  56.8  57.6 1021.7 21.1  1.016 -99.9 -99.99 -9.99
2020/02/23 23:48 EST    1.74   2.82    1  304    1  56.8  57.6 1021.6 21.4  1.017 -99.9 -99.99 -9.99
2020/02/23 23:54 EST    1.61   2.67    0  304    0  56.8  57.6 1021.5 21.7  1.017 -99.9 -99.99 -9.99
2020/02/24 00:00 EST    1.49   2.52    0  304    0  56.8  57.7 1021.5 21.4  1.017 -99.9 -99.99 -9.99
2020/02/24 00:06 EST    1.37   2.40    1  267    1  56.8  57.7 1021.4 21.6  1.017 -99.9 -99.99 -9.99
2020/02/24 00:12 EST    1.26   2.26    2  258    3  56.8  57.7 1021.3 21.3  1.016 -99.9 -99.99 -9.99
2020/02/24 00:18 EST    1.14   2.14    1  312    2  56.7  57.9 1021.3 21.2  1.016 -99.9 -99.99 -9.99
2020/02/24 00:24 EST    1.03   2.02    1  314    2  56.7  57.9 1021.2 21.4  1.017 -99.9 -99.99 -9.99
2020/02/24 00:30 EST    0.92   1.89    1  255    2  56.8  57.9 1021.1 21.8  1.017 -99.9 -99.99 -9.99
2020/02/24 00:36 EST    0.82   1.76    1  288    2  56.8  57.9 1021.2 21.9  1.017 -99.9 -99.99 -9.99
2020/02/24 00:42 EST    0.72   1.64    1  290    1  56.8  57.9 1021.3 21.8  1.017 -99.9 -99.99 -9.99
2020/02/24 00:48 EST    0.62   1.53    0  277    2  56.8  58.1 1021.2 21.8  1.017 -99.9 -99.99 -9.99
2020/02/24 00:54 EST    0.53   1.43    1  311    1  56.7  58.1 1021.2 21.8  1.017 -99.9 -99.99 -9.99
2020/02/24 01:00 EST    0.44   1.36    0  339    1  56.7  58.1 1021.0 21.8  1.017 -99.9 -99.99 -9.99
2020/02/24 01:06 EST    0.35   1.28    0  319    0  56.7  58.1 1021.0 21.8  1.017 -99.9 -99.99 -9.99
2020/02/24 01:12 EST    0.27   1.17    0  279    1  56.7  58.1 1020.8 21.8  1.017 -99.9 -99.99 -9.99
2020/02/24 01:18 EST    0.20   1.07    0  301    1  56.7  58.1 1020.7 21.7  1.017 -99.9 -99.99 -9.99
2020/02/24 01:24 EST    0.13   1.03    1  338    1  56.7  58.3 1020.7 21.7  1.017 -99.9 -99.99 -9.99
2020/02/24 01:30 EST    0.06   0.92    0  307    1  56.7  58.3 1020.7 21.7  1.017 -99.9 -99.99 -9.99
2020/02/24 01:36 EST    0.00   0.86    1  345    2  56.7  58.3 1020.6 21.7  1.017 -99.9 -99.99 -9.99
2020/02/24 01:42 EST   -0.06   0.81    2  330    2  56.5  58.3 1020.7 21.7  1.017 -99.9 -99.99 -9.99
2020/02/24 01:48 EST   -0.11   0.71    1  303    3  56.5  58.3 1020.8 21.7  1.017 -99.9 -99.99 -9.99
2020/02/24 01:54 EST   -0.15   0.73    1   36    1  56.5  58.3 1020.5 21.7  1.017 -99.9 -99.99 -9.99
2020/02/24 02:00 EST   -0.19   0.64    0   32    1  56.5  58.3 1020.4 21.7  1.017 -99.9 -99.99 -9.99
2020/02/24 02:06 EST   -0.23   0.60    2  241    3  56.5  58.3 1020.3 21.7  1.017 -99.9 -99.99 -9.99
2020/02/24 02:12 EST   -0.25   0.57    2  227    2  56.5  58.3 1020.2 21.7  1.017 -99.9 -99.99 -9.99
2020/02/24 02:18 EST   -0.28   0.52    1  230    3  56.3  58.3 1020.2 21.7  1.017 -99.9 -99.99 -9.99
2020/02/24 02:24 EST   -0.29   0.50    1  244    2  56.3  58.3 1020.1 21.6  1.017 -99.9 -99.99 -9.99
2020/02/24 02:30 EST   -0.30   0.50    1  241    1  56.3  58.5 1019.9 21.6  1.017 -99.9 -99.99 -9.99
2020/02/24 02:36 EST   -0.31   0.51    1  240    1  56.1  58.5 1019.9 21.6  1.017 -99.9 -99.99 -9.99
2020/02/24 02:42 EST   -0.30   0.50    1  300    2  56.3  58.5 1019.9 21.6  1.017 -99.9 -99.99 -9.99
2020/02/24 02:48 EST   -0.29   0.52    1  338    2  56.1  58.5 1019.7 21.6  1.017 -99.9 -99.99 -9.99
2020/02/24 02:54 EST   -0.28   0.54    1    1    2  56.1  58.5 1019.5 21.6  1.017 -99.9 -99.99 -9.99
2020/02/24 03:00 EST   -0.25   0.56    0    6    1  56.1  58.5 1019.5 21.6  1.017 -99.9 -99.99 -9.99
2020/02/24 03:06 EST   -0.23   0.59    0    6    1  56.3  58.5 1019.4 21.5  1.017 -99.9 -99.99 -9.99
2020/02/24 03:12 EST   -0.19   0.63    0  240    1  56.1  58.5 1019.2 21.5  1.017 -99.9 -99.99 -9.99
2020/02/24 03:18 EST   -0.15   0.67    2  245    2  55.9  58.5 1019.5 21.5  1.017 -99.9 -99.99 -9.99
2020/02/24 03:24 EST   -0.10   0.71    1  276    3  56.1  58.5 1019.6 21.5  1.017 -99.9 -99.99 -9.99
2020/02/24 03:30 EST   -0.05   0.75    0  325    2  56.1  58.5 1019.6 21.5  1.017 -99.9 -99.99 -9.99
2020/02/24 03:36 EST    0.01   0.81    0  254    2  56.1  58.5 1019.5 21.5  1.017 -99.9 -99.99 -9.99
2020/02/24 03:42 EST    0.08   0.88    0  253    0  56.1  58.5 1019.5 21.5  1.017 -99.9 -99.99 -9.99
2020/02/24 03:48 EST    0.15   0.94    1  351    1  56.3  58.6 1019.7 21.5  1.017 -99.9 -99.99 -9.99
2020/02/24 03:54 EST    0.22   1.00    0  350    0  56.1  58.6 1019.6 21.5  1.017 -99.9 -99.99 -9.99
2020/02/24 04:00 EST    0.30   1.10    0  307    1  56.1  58.6 1019.7 21.5  1.017 -99.9 -99.99 -9.99
2020/02/24 04:06 EST    0.39   1.17    2  244    2  56.3  58.6 1019.6 21.5  1.017 -99.9 -99.99 -9.99
2020/02/24 04:12 EST    0.47   1.24    3  237    3  56.1  58.6 1019.5 21.5  1.017 -99.9 -99.99 -9.99
2020/02/24 04:18 EST    0.57   1.33    2  224    3  55.9  58.6 1019.4 21.5  1.017 -99.9 -99.99 -9.99
2020/02/24 04:24 EST    0.66   1.44    2  253    2  56.1  58.6 1019.6 21.5  1.017 -99.9 -99.99 -9.99
2020/02/24 04:30 EST    0.76   1.56    3  265    3  55.9  58.6 1019.5 21.5  1.017 -99.9 -99.99 -9.99
2020/02/24 04:36 EST    0.86   1.69    2  244    3  55.9  58.6 1019.3 21.5  1.017 -99.9 -99.99 -9.99
2020/02/24 04:42 EST    0.96   1.82    1  218    2  56.1  58.6 1019.1 21.5  1.017 -99.9 -99.99 -9.99
2020/02/24 04:48 EST    1.06   1.93    2  187    2  55.8  58.6 1018.9 21.5  1.017 -99.9 -99.99 -9.99
2020/02/24 04:54 EST    1.16   2.07    2  198    3  55.8  58.6 1019.1 21.5  1.017 -99.9 -99.99 -9.99
2020/02/24 05:00 EST    1.27   2.16    2  202    2  55.6  58.6 1019.2 21.5  1.017 -99.9 -99.99 -9.99
2020/02/24 05:06 EST    1.38   2.25    2  221    2  55.6  58.6 1019.2 21.4  1.016 -99.9 -99.99 -9.99
2020/02/24 05:12 EST    1.49   2.45    2  204    3  55.4  58.6 1019.2 21.4  1.016 -99.9 -99.99 -9.99
2020/02/24 05:18 EST    1.59   2.53    2  196    3  55.4  58.5 1019.2 21.5  1.017 -99.9 -99.99 -9.99
2020/02/24 05:24 EST    1.70   2.61    2  205    3  55.6  58.5 1019.3 21.5  1.017 -99.9 -99.99 -9.99
2020/02/24 05:30 EST    1.81   2.71    2  211    3  55.8  58.6 1019.3 21.5  1.017 -99.9 -99.99 -9.99
2020/02/24 05:36 EST    1.92   2.82    1  184    3  55.8  58.6 1019.2 21.5  1.017 -99.9 -99.99 -9.99
2020/02/24 05:42 EST    2.03   2.93    1  186    1  55.8  58.6 1019.0 21.5  1.017 -99.9 -99.99 -9.99
2020/02/24 05:48 EST    2.13   3.06    1  150    2  55.6  58.6 1018.8 21.5  1.017 -99.9 -99.99 -9.99
2020/02/24 05:54 EST    2.24   3.15    2  159    3  55.6  58.6 1018.7 21.5  1.017 -99.9 -99.99 -9.99
2020/02/24 06:00 EST    2.35   3.29    2  161    4  55.8  58.8 1018.7 21.5  1.017 -99.9 -99.99 -9.99
2020/02/24 06:06 EST    2.45   3.38    2  200    4  55.8  58.6 1018.8 21.5  1.017 -99.9 -99.99 -9.99
2020/02/24 06:12 EST    2.56   3.49    1  242    2  56.1  58.6 1018.8 21.5  1.017 -99.9 -99.99 -9.99
2020/02/24 06:18 EST    2.66   3.60    0  215    1  56.1  58.6 1018.8 21.5  1.017 -99.9 -99.99 -9.99
2020/02/24 06:24 EST    2.77   3.73    1  186    1  55.9  58.6 1018.8 21.5  1.017 -99.9 -99.99 -9.99
2020/02/24 06:30 EST    2.87   3.86    0  187    1  55.9  58.5 1019.0 21.6  1.017 -99.9 -99.99 -9.99
2020/02/24 06:36 EST    2.97   3.93    1  221    1  56.1  58.5 1019.0 21.6  1.017 -99.9 -99.99 -9.99
2020/02/24 06:42 EST    3.07   4.02    2  251    2  56.5  58.5 1019.1 21.6  1.017 -99.9 -99.99 -9.99
2020/02/24 06:48 EST    3.16   4.14    3  224    4  56.5  58.3 1019.2 21.6  1.017 -99.9 -99.99 -9.99
2020/02/24 06:54 EST    3.26   4.22    3  210    4  56.7  58.3 1019.3 21.6  1.017 -99.9 -99.99 -9.99
2020/02/24 07:00 EST    3.35   4.29    4  209    5  56.7  58.3 1019.3 21.7  1.017 -99.9 -99.99 -9.99
2020/02/24 07:06 EST    3.44   4.39    3  216    4  56.7  58.5 1019.4 21.6  1.017 -99.9 -99.99 -9.99
2020/02/24 07:12 EST    3.53   4.46    2  200    3  56.7  58.5 1019.3 21.6  1.017 -99.9 -99.99 -9.99
2020/02/24 07:18 EST    3.62   4.54    3  191    4  56.7  58.5 1019.0 21.6  1.017 -99.9 -99.99 -9.99
2020/02/24 07:24 EST    3.70   4.63    3  180    4  56.7  58.5 1019.0 21.6  1.017 -99.9 -99.99 -9.99
2020/02/24 07:30 EST    3.78   4.73    2  190    4  56.7  58.5 1019.1 21.6  1.017 -99.9 -99.99 -9.99
2020/02/24 07:36 EST    3.86   4.79    2  206    3  56.8  58.5 1019.1 21.6  1.017 -99.9 -99.99 -9.99
2020/02/24 07:42 EST    3.93   4.87    3  202    4  57.0  58.3 1019.1 21.4  1.017 -99.9 -99.99 -9.99
2020/02/24 07:48 EST    4.00   4.93    3  206    4  57.2  58.3 1019.2 21.7  1.017 -99.9 -99.99 -9.99
2020/02/24 07:54 EST    4.07   5.02    4  193    5  57.6  58.1 1019.1 21.7  1.017 -99.9 -99.99 -9.99
2020/02/24 08:00 EST    4.13   5.14    4  182    5  57.6  58.1 1019.1 21.8  1.017 -99.9 -99.99 -9.99
2020/02/24 08:06 EST    4.19   5.15    3  207    5  57.7  57.9 1019.3 21.9  1.017 -99.9 -99.99 -9.99
2020/02/24 08:12 EST    4.25   5.21    3  203    4  58.1  57.9 1019.5 21.9  1.017 -99.9 -99.99 -9.99
2020/02/24 08:18 EST    4.30   5.26    3  214    4  58.3  57.9 1019.5 21.9  1.017 -99.9 -99.99 -9.99
2020/02/24 08:24 EST    4.35   5.34    3  202    4  58.6  57.7 1019.6 22.0  1.017 -99.9 -99.99 -9.99
2020/02/24 08:30 EST    4.39   5.31    3  218    4  59.0  57.7 1019.8 22.0  1.017 -99.9 -99.99 -9.99
2020/02/24 08:36 EST    4.43   5.43    3  192    4  59.4  57.7 1019.7 22.1  1.017 -99.9 -99.99 -9.99
2020/02/24 08:42 EST    4.46   5.46    1  188    4  59.7  57.7 1019.7 22.1  1.017 -99.9 -99.99 -9.99
2020/02/24 08:48 EST    4.49   5.47    2  197    4  60.1  57.7 1019.8 22.1  1.017 -99.9 -99.99 -9.99
2020/02/24 08:54 EST    4.51   5.50    2  231    4  60.3  57.7 1020.0 22.2  1.017 -99.9 -99.99 -9.99
2020/02/24 09:00 EST    4.53   5.54    4  220    5  60.3  57.7 1019.9 22.2  1.017 -99.9 -99.99 -9.99
2020/02/24 09:06 EST    4.54   5.55    3  224    4  60.6  57.7 1019.9 22.2  1.017 -99.9 -99.99 -9.99
2020/02/24 09:12 EST    4.55   5.55    3  227    6  60.8  57.7 1019.9 22.2  1.017 -99.9 -99.99 -9.99
2020/02/24 09:18 EST    4.55   5.54    3  226    6  61.5  57.7 1019.9 22.3  1.017 -99.9 -99.99 -9.99
2020/02/24 09:24 EST    4.54   5.52    5  208    6  63.1  57.7 1019.9 22.3  1.017 -99.9 -99.99 -9.99
2020/02/24 09:30 EST    4.53   5.53    5  198    7  63.7  57.7 1019.9 22.3  1.017 -99.9 -99.99 -9.99
2020/02/24 09:36 EST    4.51   5.51    4  191    6  64.0  57.6 1019.6 22.4  1.017 -99.9 -99.99 -9.99
2020/02/24 09:42 EST    4.49   5.49    5  195    7  64.6  57.6 1019.6 22.4  1.017 -99.9 -99.99 -9.99
2020/02/24 09:48 EST    4.45   5.46    6  192    9  65.1  57.7 1019.5 22.3  1.017 -99.9 -99.99 -9.99
2020/02/24 09:54 EST    4.41   5.43    6  192    8  65.7  57.6 1019.6 21.6  1.017 -99.9 -99.99 -9.99
2020/02/24 10:00 EST    4.37   5.41    6  208   10  65.8  57.6 1019.6 21.8  1.017 -99.9 -99.99 -9.99
2020/02/24 10:06 EST    4.32   5.41    7  184    9  66.4  57.7 1019.4 22.3  1.017 -99.9 -99.99 -9.99
2020/02/24 10:12 EST    4.26   5.37    5  198   10  67.1  57.7 1019.3 22.4  1.017 -99.9 -99.99 -9.99
2020/02/24 10:18 EST    4.19   5.30    8  195   11  67.5  57.7 1019.1 21.9  1.017 -99.9 -99.99 -9.99
2020/02/24 10:24 EST    4.12   5.23    6  202   11  67.8  57.7 1019.1 21.9  1.017 -99.9 -99.99 -9.99
2020/02/24 10:30 EST    4.04   5.15    6  204   10  68.4  57.7 1019.2 21.9  1.017 -99.9 -99.99 -9.99
2020/02/24 10:36 EST    3.95   5.09    6  216   11  68.2  57.7 1019.4 21.8  1.017 -99.9 -99.99 -9.99
2020/02/24 10:42 EST    3.86   5.00    8  214   11  68.4  57.7 1019.5 21.8  1.017 -99.9 -99.99 -9.99
2020/02/24 10:48 EST    3.76   4.87    8  212   12  68.9  57.7 1019.7 21.7  1.017 -99.9 -99.99 -9.99
2020/02/24 10:54 EST    3.65   4.75    9  210   11  69.1  57.7 1019.7 21.7  1.017 -99.9 -99.99 -9.99
2020/02/24 11:00 EST    3.55   4.61    9  223   11  68.9  57.7 1019.7 21.7  1.017 -99.9 -99.99 -9.99
2020/02/24 11:06 EST    3.43   4.49    7  212   12  69.4  57.7 1019.6 21.7  1.017 -99.9 -99.99 -9.99
2020/02/24 11:12 EST    3.31   4.39   10  218   14  69.6  57.7 1019.4 21.7  1.017 -99.9 -99.99 -9.99
2020/02/24 11:18 EST    3.19   4.23   11  213   14  69.8  57.7 1019.3 21.9  1.017 -99.9 -99.99 -9.99
2020/02/24 11:24 EST    3.06   4.07   10  212   14  70.2  57.7 1019.4 21.9  1.017 -99.9 -99.99 -9.99
2020/02/24 11:30 EST    2.93   3.92   10  211   13  70.5  57.7 1019.4 22.4  1.017 -99.9 -99.99 -9.99
2020/02/24 11:36 EST    2.80   3.79    9  215   15  70.2  57.7 1019.2 22.4  1.017 -99.9 -99.99 -9.99
2020/02/24 11:42 EST    2.67   3.70    8  212   14  71.1  57.7 1019.1 22.5  1.017 -99.9 -99.99 -9.99
2020/02/24 11:48 EST    2.54   3.46    9  207   13  71.2  57.9 1018.9 22.4  1.017 -99.9 -99.99 -9.99
2020/02/24 11:54 EST    2.40   3.27    7  204   13  71.2  57.9 1018.7 22.4  1.017 -99.9 -99.99 -9.99
2020/02/24 12:00 EST    2.27   3.20   10  209   15  71.6  57.9 1018.7 22.4  1.017 -99.9 -99.99 -9.99
2020/02/24 12:06 EST    2.13   3.02   10  208   15  71.8  57.9 1018.6 22.4  1.017 -99.9 -99.99 -9.99
2020/02/24 12:12 EST    2.00   2.82    9  216   12  71.6  57.9 1018.5 22.4  1.017 -99.9 -99.99 -9.99
2020/02/24 12:18 EST    1.87   2.65   11  212   13  71.6  57.9 1018.3 22.4  1.017 -99.9 -99.99 -9.99
2020/02/24 12:24 EST    1.74   2.51    9  197   15  72.5  58.1 1018.1 22.3  1.017 -99.9 -99.99 -9.99
2020/02/24 12:30 EST    1.61   2.40    9  194   14  72.7  58.1 1017.9 22.3  1.017 -99.9 -99.99 -9.99
2020/02/24 12:36 EST    1.48   2.30   10  198   13  73.2  58.3 1017.8 22.2  1.017 -99.9 -99.99 -9.99
2020/02/24 12:42 EST    1.36   2.18   11  194   15  72.9  58.5 1017.6 22.1  1.017 -99.9 -99.99 -9.99
2020/02/24 12:48 EST    1.24   2.05    9  175   14  73.6  58.5 1017.5 22.1  1.017 -99.9 -99.99 -9.99
2020/02/24 12:54 EST    1.12   1.91    9  195   12  73.4  58.5 1017.3 22.1  1.017 -99.9 -99.99 -9.99
2020/02/24 13:00 EST    1.01   1.83   10  211   14  73.6  58.6 1017.1 22.1  1.017 -99.9 -99.99 -9.99
2020/02/24 13:06 EST    0.90   1.77   10  209   15  73.8  58.6 1016.9 22.1  1.017 -99.9 -99.99 -9.99
2020/02/24 13:12 EST    0.79   1.67    9  203   16  74.3  58.8 1016.9 22.0  1.017 -99.9 -99.99 -9.99
2020/02/24 13:18 EST    0.69   1.55   10  216   13  73.4  59.0 1016.8 21.9  1.017 -99.9 -99.99 -9.99
2020/02/24 13:24 EST    0.60   1.46   11  191   14  74.3  59.0 1016.6 21.9  1.017 -99.9 -99.99 -9.99
2020/02/24 13:30 EST    0.50   1.35    9  202   15  73.8  59.0 1016.6 21.9  1.017 -99.9 -99.99 -9.99
2020/02/24 13:36 EST    0.42   1.26    9  213   14  73.6  59.0 1016.5 21.9  1.017 -99.9 -99.99 -9.99
2020/02/24 13:42 EST    0.33   1.15   11  185   14  74.7  59.0 1016.5 21.9  1.017 -99.9 -99.99 -9.99
2020/02/24 13:48 EST    0.26   1.07    7  157   14  73.0  59.0 1016.5 21.9  1.017 -99.9 -99.99 -9.99
2020/02/24 13:54 EST    0.18   1.01    8  131   11  71.2  59.2 1016.4 21.8  1.017 -99.9 -99.99 -9.99
2020/02/24 14:00 EST    0.11   0.96    8  133   12  72.0  59.2 1016.3 21.8  1.017 -99.9 -99.99 -9.99
2020/02/24 14:06 EST    0.05   0.90   10  128   13  70.7  59.2 1016.2 21.8  1.017 -99.9 -99.99 -9.99
2020/02/24 14:12 EST   -0.01   0.86    9  124   15  70.2  59.2 1016.2 21.8  1.017 -99.9 -99.99 -9.99
2020/02/24 14:18 EST   -0.06   0.80   10  133   15  68.7  59.2 1016.2 21.8  1.017 -99.9 -99.99 -9.99
2020/02/24 14:24 EST   -0.10   0.74    9  138   13  68.7  59.2 1016.2 21.8  1.017 -99.9 -99.99 -9.99
2020/02/24 14:30 EST   -0.14   0.66    9  136   16  68.7  59.2 1016.0 21.8  1.017 -99.9 -99.99 -9.99
2020/02/24 14:36 EST   -0.18   0.62   10  143   14  69.1  59.2 1015.9 21.8  1.017 -99.9 -99.99 -9.99
2020/02/24 14:42 EST   -0.21   0.61   10  146   15  69.6  59.2 1015.9 21.8  1.017 -99.9 -99.99 -9.99
2020/02/24 14:48 EST   -0.23   0.56    9  145   13  69.8  59.2 1015.9 21.8  1.017 -99.9 -99.99 -9.99
2020/02/24 14:54 EST   -0.24   0.59    8  139   14  69.6  59.2 1015.9 21.8  1.017 -99.9 -99.99 -9.99
2020/02/24 15:00 EST   -0.25   0.56    9  140   14  69.3  59.2 1015.9 21.8  1.017 -99.9 -99.99 -9.99
2020/02/24 15:06 EST   -0.25   0.53    9  145   15  69.6  59.4 1015.9 21.7  1.017 -99.9 -99.99 -9.99
2020/02/24 15:12 EST   -0.25   0.50   10  147   17  68.9  59.4 1015.9 21.7  1.017 -99.9 -99.99 -9.99
2020/02/24 15:18 EST   -0.23   0.55   10  145   15  68.9  59.5 1015.6 21.7  1.017 -99.9 -99.99 -9.99
2020/02/24 15:24 EST   -0.22   0.54   10  152   17  69.1  59.5 1015.6 21.7  1.017 -99.9 -99.99 -9.99
2020/02/24 15:30 EST   -0.19   0.55    7  147   16  69.1  59.7 1015.5 21.6  1.017 -99.9 -99.99 -9.99
2020/02/24 15:36 EST   -0.16   0.57    8  148   15  68.4  59.7 1015.5 21.6  1.017 -99.9 -99.99 -9.99
2020/02/24 15:42 EST   -0.12   0.61    9  146   15  68.4  59.7 1015.5 21.6  1.017 -99.9 -99.99 -9.99
2020/02/24 15:48 EST   -0.07   0.66    6  151   13  69.1  59.7 1015.4 21.6  1.017 -99.9 -99.99 -9.99
2020/02/24 15:54 EST   -0.02   0.73    9  149   13  68.9  59.7 1015.3 21.6  1.017 -99.9 -99.99 -9.99
2020/02/24 16:00 EST    0.03   0.81    8  155   16  68.2  59.9 1015.2 21.6  1.016 -99.9 -99.99 -9.99
2020/02/24 16:06 EST    0.10   0.89    8  148   14  67.8  59.9 1015.2 21.6  1.016 -99.9 -99.99 -9.99
2020/02/24 16:12 EST    0.17   0.97    9  155   14  67.8  59.9 1015.2 21.6  1.016 -99.9 -99.99 -9.99
2020/02/24 16:18 EST    0.24   1.01    7  152   14  67.5  59.9 1015.2 21.6  1.016 -99.9 -99.99 -9.99
2020/02/24 16:24 EST    0.32   0.98    7  151   12  66.9  59.9 1015.1 21.6  1.016 -99.9 -99.99 -9.99
2020/02/24 16:30 EST    0.40   1.11    8  145   15  66.9  59.9 1015.1 21.6  1.016 -99.9 -99.99 -9.99
2020/02/24 16:36 EST    0.48   1.07    8  154   15  67.1  59.9 1015.0 21.6  1.016 -99.9 -99.99 -9.99
2020/02/24 16:42 EST    0.57   1.23    8  156   16  67.6  59.9 1015.0 21.6  1.016 -99.9 -99.99 -9.99
2020/02/24 16:48 EST    0.67   1.37    8  155   17  67.6  59.9 1015.0 21.6  1.016 -99.9 -99.99 -9.99
2020/02/24 16:54 EST    0.76   1.44    6  162   15  67.5  59.9 1015.0 21.5  1.016 -99.9 -99.99 -9.99
2020/02/24 17:00 EST    0.86   1.59    8  152   14  67.8  59.9 1014.9 21.5  1.016 -99.9 -99.99 -9.99
2020/02/24 17:06 EST    0.96   1.69    8  154   14  67.8  59.9 1014.7 21.5  1.016 -99.9 -99.99 -9.99
2020/02/24 17:12 EST    1.06   1.74    8  152   14  67.6  59.9 1014.7 21.5  1.016 -99.9 -99.99 -9.99
2020/02/24 17:18 EST    1.16   1.85    7  156   15  67.5  59.9 1014.7 21.5  1.016 -99.9 -99.99 -9.99
2020/02/24 17:24 EST    1.27   1.82   10  160   16  67.3  59.9 1014.6 21.5  1.016 -99.9 -99.99 -9.99
2020/02/24 17:30 EST    1.37   2.07    8  152   15  67.3  60.1 1014.6 21.4  1.016 -99.9 -99.99 -9.99
2020/02/24 17:36 EST    1.48   2.22    9  154   15  66.9  59.9 1014.8 21.5  1.016 -99.9 -99.99 -9.99
2020/02/24 17:42 EST    1.58   2.29    8  158   13  66.4  59.9 1014.9 21.5  1.016 -99.9 -99.99 -9.99
2020/02/24 17:48 EST    1.69   2.45    8  156   15  66.4  59.9 1015.0 21.5  1.016 -99.9 -99.99 -9.99
2020/02/24 17:54 EST    1.80   2.59    7  158   13  66.2  59.9 1015.0 21.5  1.016 -99.9 -99.99 -9.99
2020/02/24 18:00 EST    1.90   2.64    6  154   13  66.2  59.9 1014.9 21.5  1.016 -99.9 -99.99 -9.99
2020/02/24 18:06 EST    2.01   2.77   10  158   15  66.0  59.9 1014.8 21.5  1.016 -99.9 -99.99 -9.99
2020/02/24 18:12 EST    2.11   2.80    9  160   16  66.0  59.9 1014.9 21.5  1.016 -99.9 -99.99 -9.99
2020/02/24 18:18 EST    2.22   3.00    8  156   15  65.7  59.9 1014.9 21.5  1.016 -99.9 -99.99 -9.99
2020/02/24 18:24 EST    2.32   3.16   10  160   17  65.7  59.9 1014.8 21.5  1.016 -99.9 -99.99 -9.99
2020/02/24 18:30 EST    2.42   3.26    8  156   14  65.5  59.7 1014.8 21.5  1.016 -99.9 -99.99 -9.99
2020/02/24 18:36 EST    2.52   3.32    8  162   14  65.5  59.7 1014.9 21.5  1.016 -99.9 -99.99 -9.99
2020/02/24 18:42 EST    2.62   3.39    8  159   13  65.5  59.7 1014.8 21.5  1.016 -99.9 -99.99 -9.99
2020/02/24 18:48 EST    2.72   3.50    9  157   16  65.5  59.5 1014.7 21.6  1.017 -99.9 -99.99 -9.99
2020/02/24 18:54 EST    2.81   3.60    7  156   14  65.5  59.5 1014.7 21.6  1.017 -99.9 -99.99 -9.99
2020/02/24 19:00 EST    2.91   3.70    7  155   13  65.5  59.5 1014.8 21.6  1.017 -99.9 -99.99 -9.99
2020/02/24 19:06 EST    3.00   3.76   10  162   16  65.5  59.5 1014.7 21.6  1.017 -99.9 -99.99 -9.99
2020/02/24 19:12 EST    3.09   3.85    8  161   16  65.5  59.7 1014.7 21.5  1.016 -99.9 -99.99 -9.99
2020/02/24 19:18 EST    3.18   3.95    9  159   15  65.5  59.7 1014.8 21.5  1.016 -99.9 -99.99 -9.99
2020/02/24 19:24 EST    3.26   4.04    8  162   13  65.5  59.7 1014.6 21.5  1.016 -99.9 -99.99 -9.99
2020/02/24 19:30 EST    3.34   4.12    8  161   13  65.5  59.5 1014.7 21.6  1.017 -99.9 -99.99 -9.99
2020/02/24 19:36 EST    3.42   4.20    7  163   11  65.5  59.5 1014.9 21.6  1.017 -99.9 -99.99 -9.99
2020/02/24 19:42 EST    3.50   4.27    7  164   11  65.5  59.5 1014.9 21.6  1.017 -99.9 -99.99 -9.99
2020/02/24 19:48 EST    3.57   4.37    6  162   10  65.3  59.5 1015.1 21.6  1.017 -99.9 -99.99 -9.99
2020/02/24 19:54 EST    3.64   4.43    6  151   11  65.3  59.4 1015.0 21.7  1.017 -99.9 -99.99 -9.99
2020/02/24 20:00 EST    3.71   4.52    5  155    9  65.1  59.4 1014.9 21.6  1.017 -99.9 -99.99 -9.99
2020/02/24 20:06 EST    3.77   4.59    6  155   10  64.9  59.4 1014.8 21.6  1.017 -99.9 -99.99 -9.99
2020/02/24 20:12 EST    3.83   4.64    6  154    9  64.9  59.4 1014.7 21.6  1.017 -99.9 -99.99 -9.99
2020/02/24 20:18 EST    3.89   4.70    5  155   11  65.1  59.2 1014.7 21.7  1.017 -99.9 -99.99 -9.99
2020/02/24 20:24 EST    3.94   4.76    8  160   12  64.9  59.0 1014.7 21.4  1.016 -99.9 -99.99 -9.99
2020/02/24 20:30 EST    3.99   4.81    6  155   11  65.1  59.0 1014.6 21.5  1.016 -99.9 -99.99 -9.99
2020/02/24 20:36 EST    4.03   4.86    8  151   12  65.3  58.6 1014.5 21.7  1.017 -99.9 -99.99 -9.99
2020/02/24 20:42 EST    4.07   4.90    8  155   13  65.5  58.6 1014.4 22.0  1.017 -99.9 -99.99 -9.99
2020/02/24 20:48 EST    4.10   4.92    7  160   15  65.7  58.6 1014.5 22.0  1.017 -99.9 -99.99 -9.99
2020/02/24 20:54 EST    4.13   4.98    8  156   15  65.8  58.6 1014.4 22.1  1.017 -99.9 -99.99 -9.99
2020/02/24 21:00 EST    4.16   5.02    8  156   15  65.8  58.6 1014.4 22.1  1.017 -99.9 -99.99 -9.99
2020/02/24 21:06 EST    4.18   5.04    7  159   14  65.8  58.5 1014.3 22.2  1.017 -99.9 -99.99 -9.99
2020/02/24 21:12 EST    4.19   5.04    6  156   14  65.8  58.5 1014.3 22.2  1.017 -99.9 -99.99 -9.99
2020/02/24 21:18 EST    4.20   5.12    4  164   12  66.0  58.5 1014.4 22.2  1.017 -99.9 -99.99 -9.99
2020/02/24 21:24 EST    4.20   5.08    7  159   12  66.2  58.5 1014.5 21.7  1.017 -99.9 -99.99 -9.99
2020/02/24 21:30 EST    4.20   5.09    7  169   10  66.6  58.5 1014.4 22.3  1.017 -99.9 -99.99 -9.99
2020/02/24 21:36 EST    4.20   5.10    6  168    9  66.9  58.5 1014.4 22.3  1.017 -99.9 -99.99 -9.99
2020/02/24 21:42 EST    4.18   5.09    5  175   10  66.9  58.5 1014.4 22.3  1.017 -99.9 -99.99 -9.99
2020/02/24 21:48 EST    4.16   5.06    4  171    9  66.9  58.5 1014.3 22.3  1.017 -99.9 -99.99 -9.99
2020/02/24 21:54 EST    4.14   5.06    5  176    9  67.3  58.3 1014.3 22.3  1.017 -99.9 -99.99 -9.99
2020/02/24 22:00 EST    4.11   5.10    6  182    9  67.6  58.3 1014.1 22.3  1.017 -99.9 -99.99 -9.99
2020/02/24 22:06 EST    4.07   5.06    9  183   14  67.8  58.3 1014.0 22.3  1.017 -99.9 -99.99 -9.99
2020/02/24 22:12 EST    4.03   5.14    9  176   13  68.0  58.3 1014.1 22.3  1.017 -99.9 -99.99 -9.99
2020/02/24 22:18 EST    3.98   4.94    8  185   12  67.6  58.3 1014.1 22.3  1.017 -99.9 -99.99 -9.99
2020/02/24 22:24 EST    3.92   4.90    9  182   14  67.6  58.3 1014.0 22.3  1.017 -99.9 -99.99 -9.99
2020/02/24 22:30 EST    3.86   4.86    7  172   13  67.5  58.3 1013.8 22.4  1.017 -99.9 -99.99 -9.99
2020/02/24 22:36 EST    3.79   4.81   10  175   14  67.6  58.3 1013.7 21.8  1.017 -99.9 -99.99 -9.99
2020/02/24 22:42 EST    3.72   4.77    9  175   16  67.6  58.3 1013.6 21.9  1.017 -99.9 -99.99 -9.99
2020/02/24 22:48 EST    3.64   4.67    9  168   13  67.6  58.3 1013.2 21.9  1.017 -99.9 -99.99 -9.99
2020/02/24 22:54 EST    3.55   4.58    9  167   14  67.8  58.3 1013.1 21.9  1.017 -99.9 -99.99 -9.99
2020/02/24 23:00 EST    3.46   4.48    8  171   13  67.8  58.3 1013.2 21.8  1.017 -99.9 -99.99 -9.99
2020/02/24 23:06 EST    3.36   4.36    8  180   16  67.6  58.3 1013.4 21.7  1.017 -99.9 -99.99 -9.99
2020/02/24 23:12 EST    3.26   4.27    6  179   14  67.6  58.3 1013.2 22.1  1.017 -99.9 -99.99 -9.99
2020/02/24 23:18 EST    3.15   4.17    9  180   16  67.8  58.3 1013.2 21.8  1.017 -99.9 -99.99 -9.99
2020/02/24 23:24 EST    3.04   4.07    8  181   13  67.8  58.3 1013.1 22.2  1.017 -99.9 -99.99 -9.99
2020/02/24 23:30 EST    2.92   3.94    6  192   15  67.8  58.3 1013.1 22.5  1.017 -99.9 -99.99 -9.99
2020/02/24 23:36 EST    2.81   3.79    8  190   14  67.6  58.3 1013.2 22.5  1.017 -99.9 -99.99 -9.99
2020/02/24 23:42 EST    2.68   3.63    8  195   11  67.3  58.3 1013.2 22.5  1.017 -99.9 -99.99 -9.99
2020/02/24 23:48 EST    2.56   3.51    8  197   11  66.7  58.6 1013.2 22.3  1.017 -99.9 -99.99 -9.99
2020/02/24 23:54 EST    2.43   3.38    7  199   12  66.7  58.5 1013.4 22.4  1.017 -99.9 -99.99 -9.99
2020/02/25 00:00 EST    2.31   3.22    6  201   10  66.7  58.5 1013.4 22.4  1.017 -99.9 -99.99 -9.99
2020/02/25 00:06 EST    2.18   3.02    7  193   10  66.9  58.5 1013.2 22.4  1.017 -99.9 -99.99 -9.99
2020/02/25 00:12 EST    2.05   2.84    6  177   10  67.1  58.5 1012.7 22.4  1.017 -99.9 -99.99 -9.99
2020/02/25 00:18 EST    1.92   2.67    6  179   11  67.1  58.5 1012.6 22.4  1.017 -99.9 -99.99 -9.99
2020/02/25 00:24 EST    1.80   2.52    5  209    9  67.5  58.5 1013.0 22.4  1.017 -99.9 -99.99 -9.99
2020/02/25 00:30 EST    1.67   2.39    6  202    9  67.5  58.5 1013.0 22.4  1.017 -99.9 -99.99 -9.99
2020/02/25 00:36 EST    1.55   2.27    6  196   10  67.3  58.6 1012.9 22.3  1.017 -99.9 -99.99 -9.99
2020/02/25 00:42 EST    1.43   2.12    7  190   10  67.5  58.8 1012.9 22.2  1.017 -99.9 -99.99 -9.99
2020/02/25 00:48 EST    1.31   1.98    7  192   12  67.6  59.0 1012.9 22.2  1.017 -99.9 -99.99 -9.99
2020/02/25 00:54 EST    1.19   1.85    8  193   12  67.6  59.0 1012.9 22.2  1.017 -99.9 -99.99 -9.99
2020/02/25 01:00 EST    1.08   1.73    8  194   13  67.6  59.0 1012.9 22.1  1.017 -99.9 -99.99 -9.99
2020/02/25 01:06 EST    0.97   1.60    8  198   15  67.8  59.0 1012.8 22.1  1.017 -99.9 -99.99 -9.99
2020/02/25 01:12 EST    0.87   1.48    8  198   15  67.8  59.2 1012.8 22.1  1.017 -99.9 -99.99 -9.99
2020/02/25 01:18 EST    0.77   1.36    9  195   19  67.6  59.4 1012.7 22.0  1.017 -99.9 -99.99 -9.99
2020/02/25 01:24 EST    0.67   1.26   11  194   17  67.8  59.4 1012.6 22.0  1.017 -99.9 -99.99 -9.99
2020/02/25 01:30 EST    0.58   1.16   10  191   15  67.6  59.5 1012.6 21.9  1.017 -99.9 -99.99 -9.99
2020/02/25 01:36 EST    0.49   1.08    9  195   15  67.6  59.5 1012.6 21.9  1.017 -99.9 -99.99 -9.99
2020/02/25 01:42 EST    0.41   0.99   10  195   14  67.6  59.7 1012.6 21.8  1.017 -99.9 -99.99 -9.99
2020/02/25 01:48 EST    0.33   0.89   10  201   15  67.5  59.7 1012.5 21.8  1.017 -99.9 -99.99 -9.99
2020/02/25 01:54 EST    0.26   0.83   10  197   16  67.5  59.7 1012.5 21.8  1.017 -99.9 -99.99 -9.99
2020/02/25 02:00 EST    0.19   0.76    8  204   12  67.3  59.7 1012.5 21.8  1.017 -99.9 -99.99 -9.99
2020/02/25 02:06 EST    0.12   0.69    9  194   13  67.3  59.7 1012.2 21.8  1.017 -99.9 -99.99 -9.99
2020/02/25 02:12 EST    0.07   0.65    8  187   14  67.1  59.7 1012.1 21.8  1.017 -99.9 -99.99 -9.99
2020/02/25 02:18 EST    0.01   0.60    9  197   13  66.9  59.7 1012.1 21.8  1.017 -99.9 -99.99 -9.99
2020/02/25 02:24 EST   -0.04   0.57    7  205   13  66.9  59.5 1012.3 21.9  1.017 -99.9 -99.99 -9.99
2020/02/25 02:30 EST   -0.08   0.57    7  203   12  66.7  59.5 1012.2 21.9  1.017 -99.9 -99.99 -9.99
2020/02/25 02:36 EST   -0.12   0.54    7  201   11  66.7  59.5 1012.1 21.9  1.017 -99.9 -99.99 -9.99
2020/02/25 02:42 EST   -0.15   0.53    7  195   11  66.7  59.7 1011.8 21.8  1.017 -99.9 -99.99 -9.99
2020/02/25 02:48 EST   -0.18   0.48    8  194   12  66.7  59.7 1011.8 21.8  1.017 -99.9 -99.99 -9.99
2020/02/25 02:54 EST   -0.20   0.42    8  191   13  66.7  59.7 1011.6 21.8  1.017 -99.9 -99.99 -9.99
2020/02/25 03:00 EST   -0.21   0.41    8  209   12  66.7  59.7 1012.1 21.8  1.017 -99.9 -99.99 -9.99
2020/02/25 03:06 EST   -0.22   0.41   10  204   14  66.9  59.9 1011.7 21.7  1.017 -99.9 -99.99 -9.99
2020/02/25 03:12 EST   -0.22   0.38   10  206   13  67.1  59.9 1011.8 21.7  1.017 -99.9 -99.99 -9.99
2020/02/25 03:18 EST   -0.22   0.37   11  207   15  67.1  59.9 1011.8 21.7  1.017 -99.9 -99.99 -9.99
2020/02/25 03:24 EST   -0.21   0.40   10  206   15  67.3  60.1 1011.7 21.6  1.016 -99.9 -99.99 -9.99
2020/02/25 03:30 EST   -0.20   0.39   11  202   17  67.5  60.1 1011.7 21.6  1.016 -99.9 -99.99 -9.99
2020/02/25 03:36 EST   -0.18   0.39   11  207   19  67.6  60.1 1011.8 21.6  1.016 -99.9 -99.99 -9.99
2020/02/25 03:42 EST   -0.15   0.40   11  209   17  67.6  60.1 1011.9 21.6  1.016 -99.9 -99.99 -9.99
2020/02/25 03:48 EST   -0.12   0.45   11  216   18  67.6  60.3 1012.1 21.5  1.016 -99.9 -99.99 -9.99
2020/02/25 03:54 EST   -0.08   0.49   13  222   21  67.3  60.3 1012.3 21.5  1.016 -99.9 -99.99 -9.99
2020/02/25 04:00 EST   -0.04   0.52    9  211   16  67.6  60.3 1012.0 21.5  1.016 -99.9 -99.99 -9.99
2020/02/25 04:06 EST    0.02   0.55   10  218   13  67.5  60.3 1012.1 21.5  1.016 -99.9 -99.99 -9.99
2020/02/25 04:12 EST    0.07   0.57   11  213   16  67.5  60.3 1012.1 21.5  1.016 -99.9 -99.99 -9.99
2020/02/25 04:18 EST    0.13   0.52   10  210   15  67.8  60.3 1011.9 21.5  1.016 -99.9 -99.99 -9.99
2020/02/25 04:24 EST    0.20   0.64    8  215   14  67.6  60.3 1012.2 21.5  1.016 -99.9 -99.99 -9.99
2020/02/25 04:30 EST    0.27   0.70    9  214   14  67.5  60.3 1012.1 21.5  1.016 -99.9 -99.99 -9.99
2020/02/25 04:36 EST    0.35   0.78   13  217   17  67.5  60.3 1012.3 21.5  1.016 -99.9 -99.99 -9.99
2020/02/25 04:42 EST    0.43   0.81   14  225   17  67.5  60.3 1012.4 21.5  1.016 -99.9 -99.99 -9.99
2020/02/25 04:48 EST    0.51   0.86   13  223   19  67.5  60.4 1012.4 21.4  1.016 -99.9 -99.99 -9.99
2020/02/25 04:54 EST    0.60   0.95   11  222   17  67.3  60.4 1012.5 21.4  1.016 -99.9 -99.99 -9.99
2020/02/25 05:00 EST    0.69   1.05   13  230   18  67.1  60.4 1012.5 21.4  1.016 -99.9 -99.99 -9.99
2020/02/25 05:06 EST    0.78   1.16   10  222   15  67.1  60.4 1012.6 21.4  1.016 -99.9 -99.99 -9.99
2020/02/25 05:12 EST    0.88   1.25   12  230   17  67.5  60.4 1012.6 21.4  1.016 -99.9 -99.99 -9.99
2020/02/25 05:18 EST    0.98   1.38   11  230   15  67.3  60.4 1012.7 21.4  1.016 -99.9 -99.99 -9.99
2020/02/25 05:24 EST    1.08   1.51   11  239   15  67.3  60.4 1012.9 21.4  1.016 -99.9 -99.99 -9.99
2020/02/25 05:30 EST    1.18   1.65   11  244   15  67.8  60.4 1013.0 21.4  1.016 -99.9 -99.99 -9.99
2020/02/25 05:36 EST    1.29   1.77   11  256   14  67.8  60.4 1013.3 21.4  1.016 -99.9 -99.99 -9.99
2020/02/25 05:42 EST    1.39   1.88    9  271   13  67.6  60.4 1013.6 21.3  1.016 -99.9 -99.99 -9.99
2020/02/25 05:48 EST    1.50   1.93    7  269    9  67.1  60.4 1013.5 21.3  1.016 -99.9 -99.99 -9.99
2020/02/25 05:54 EST    1.60   2.03    7  248    9  67.1  60.4 1013.3 21.3  1.016 -99.9 -99.99 -9.99
2020/02/25 06:00 EST    1.71   2.14    7  247    8  67.1  60.4 1013.2 21.3  1.016 -99.9 -99.99 -9.99
2020/02/25 06:06 EST    1.82   2.25    5  234    8  66.9  60.4 1013.2 21.3  1.016 -99.9 -99.99 -9.99
2020/02/25 06:12 EST    1.92   2.39    6  243    7  66.9  60.4 1013.2 21.3  1.016 -99.9 -99.99 -9.99
2020/02/25 06:18 EST    2.03   2.51    6  246    8  66.9  60.4 1013.2 21.3  1.016 -99.9 -99.99 -9.99
2020/02/25 06:24 EST    2.13   2.65    6  252    8  67.1  60.4 1013.3 21.3  1.016 -99.9 -99.99 -9.99
2020/02/25 06:30 EST    2.24   2.77    5  265    7  66.9  60.4 1013.4 21.3  1.016 -99.9 -99.99 -9.99
2020/02/25 06:36 EST    2.34   2.85    6  274    8  67.1  60.4 1013.6 21.3  1.016 -99.9 -99.99 -9.99
2020/02/25 06:42 EST    2.44   2.93    6  278    7  66.7  60.4 1013.7 21.3  1.016 -99.9 -99.99 -9.99
2020/02/25 06:48 EST    2.55   3.01    5  280    6  66.6  60.4 1013.8 21.3  1.016 -99.9 -99.99 -9.99
2020/02/25 06:54 EST    2.65   3.14    5  293    6  66.2  60.4 1013.9 21.3  1.016 -99.9 -99.99 -9.99
2020/02/25 07:00 EST    2.75   3.28    4  303    5  65.8  60.4 1013.8 21.3  1.016 -99.9 -99.99 -9.99
2020/02/25 07:06 EST    2.85   3.37    4  302    4  65.7  60.4 1014.0 21.4  1.016 -99.9 -99.99 -9.99
2020/02/25 07:12 EST    2.94   3.42    4  309    5  65.7  60.4 1014.2 21.3  1.016 -99.9 -99.99 -9.99
2020/02/25 07:18 EST    3.04   3.49    5  337    6  64.9  60.4 1014.3 21.4  1.016 -99.9 -99.99 -9.99
2020/02/25 07:24 EST    3.13   3.61    6  337    8  64.2  60.4 1014.3 21.4  1.016 -99.9 -99.99 -9.99
2020/02/25 07:30 EST    3.22   3.70    5  335    7  64.0  60.4 1014.3 21.4  1.016 -99.9 -99.99 -9.99
2020/02/25 07:36 EST    3.31   3.81    5  331    7  63.9  60.4 1014.4 21.4  1.016 -99.9 -99.99 -9.99
2020/02/25 07:42 EST    3.40   3.92    5  337    7  63.5  60.4 1014.3 21.4  1.016 -99.9 -99.99 -9.99
2020/02/25 07:48 EST    3.48   4.02    4  347    6  63.3  60.4 1014.2 21.3  1.016 -99.9 -99.99 -9.99
2020/02/25 07:54 EST    3.56   4.10    4  343    5  63.1  60.4 1014.4 21.4  1.016 -99.9 -99.99 -9.99
2020/02/25 08:00 EST    3.64   4.17    2  303    4  63.0  60.3 1014.4 21.4  1.016 -99.9 -99.99 -9.99
2020/02/25 08:06 EST    3.72   4.23    1  347    3  63.0  60.3 1014.3 21.4  1.016 -99.9 -99.99 -9.99
2020/02/25 08:12 EST    3.79 -99.99 -999 -999 -999 -99.9 -99.9 -999.9 -9.9 -9.999 -99.9 -99.99 -9.99
2020/02/25 08:18 EST    3.86 -99.99 -999 -999 -999 -99.9 -99.9 -999.9 -9.9 -9.999 -99.9 -99.99 -9.99